Data for 01/19/2010

Time Sea-Level Adjusted Pressure Absolute Pressure Temperature Relative Humidity Dew Point Precipitation   
(mb) (inHg) (mb) (inHg) (C) (F) (%) (C) (F) (mm) (in)
00:01 1005 29.68 834 24.63 -3 26.6 68 -8 17.6 -2.592 -0.102
00:02 1005 29.68 834 24.63 -2.8 27 67 -8 17.5 -2.365 -0.093
00:03 1005 29.68 834 24.63 -2.6 27.3 67 -7.9 17.8 -2.292 -0.09
00:04 1005 29.68 834 24.63 -2.5 27.5 67 -7.8 17.9 -2.127 -0.084
00:05 1005 29.68 834 24.63 -2.4 27.7 64 -8.4 16.9 -2.02 -0.08
00:06 1005 29.68 834 24.63 -2.7 27.2 66 -8.2 17.2 -2.314 -0.091
00:07 1005 29.68 834 24.63 -2.8 27 68 -7.9 17.7 -2.354 -0.093
00:08 1005 29.68 834 24.63 -2.6 27.4 67 -7.9 17.9 -2.071 -0.082
00:09 1005 29.68 834 24.63 -2.4 27.7 66 -7.9 17.8 -1.918 -0.076
00:10 1005 29.68 834 24.63 -2.3 27.9 66 -7.7 18.1 -1.889 -0.074
00:11 1005 29.68 834 24.63 -2.2 28.1 65 -7.9 17.7 -1.867 -0.074
00:12 1005 29.68 834 24.63 -2.2 28 65 -7.8 17.9 -1.861 -0.073
00:13 1005 29.68 834 24.63 -2.2 28.1 65 -7.9 17.7 -1.838 -0.072
00:14 1005 29.68 834 24.63 -2.3 27.9 62 -8.6 16.6 -1.918 -0.076
00:15 1005 29.68 834 24.63 -2.6 27.3 67 -7.9 17.8 -2.218 -0.087
00:16 1005 29.68 834 24.63 -2.7 27.2 67 -7.9 17.8 -2.161 -0.085
00:17 1005 29.68 834 24.63 -2.5 27.6 67 -7.9 17.9 -2.037 -0.08
00:18 1005 29.68 834 24.63 -2.4 27.6 67 -7.7 18.2 -2.11 -0.083
00:19 1005 29.68 834 24.63 -2.5 27.6 67 -7.8 18 -2.014 -0.079
00:20 1005 29.68 834 24.63 -2.3 27.9 66 -7.7 18.1 -1.85 -0.073
00:21 1005 29.68 834 24.63 -2.2 28.1 66 -7.7 18.2 -1.714 -0.067
00:22 1005 29.68 834 24.63 -1.9 28.5 65 -7.7 18.1 -1.476 -0.058
00:23 1005 29.68 834 24.63 -1.8 28.7 65 -7.6 18.3 -1.413 -0.056
00:24 1005 29.68 834 24.63 -1.8 28.7 62 -8.1 17.4 -1.43 -0.056
00:25 1005 29.68 834 24.63 -2 28.3 65 -7.8 18 -1.668 -0.066
00:26 1005 29.68 834 24.63 -2.1 28.3 65 -7.8 17.9 -1.714 -0.067
00:27 1005 29.68 834 24.63 -2.2 28 63 -8.3 17 -1.884 -0.074
00:28 1005 29.68 834 24.63 -2.4 27.7 66 -7.8 17.9 -2.003 -0.079
00:29 1005 29.68 834 24.63 -2 28.4 64 -8 17.7 -1.589 -0.063
00:30 1005 29.68 834 24.63 -1.6 29.1 62 -7.9 17.7 -1.294 -0.051
00:31 1005 29.68 834 24.63 -1.5 29.3 61 -8 17.5 -1.215 -0.048
00:32 1005 29.68 834 24.63 -1.8 28.7 61 -8.5 16.8 -1.504 -0.059
00:33 1005 29.68 834 24.63 -2.2 28.1 65 -7.9 17.8 -1.833 -0.072
00:34 1005 29.68 834 24.63 -2.2 28 63 -8.3 17 -1.918 -0.076
00:35 1005 29.68 834 24.63 -2.5 27.5 66 -8.1 17.5 -2.156 -0.085
00:36 1005 29.68 834 24.63 -2.4 27.7 65 -8.2 17.3 -2.042 -0.08
00:37 1005 29.68 834 24.63 -2.4 27.7 63 -8.5 16.7 -2.059 -0.081
00:38 1005 29.68 834 24.63 -2.5 27.4 66 -8 17.5 -2.229 -0.088
00:39 1004 29.65 834 24.63 -2.4 27.7 67 -7.8 18 -2.02 -0.08
00:40 1004 29.65 834 24.63 -1.8 28.7 63 -7.9 17.8 -1.555 -0.061
00:41 1004 29.65 834 24.63 -1.7 28.9 62 -8 17.6 -1.459 -0.057
00:42 1004 29.65 834 24.63 -1.7 28.9 61 -8.4 16.9 -1.459 -0.057
00:43 1004 29.65 834 24.63 -2 28.5 62 -8.3 17.1 -1.691 -0.067
00:44 1004 29.65 834 24.63 -2.2 28.1 63 -8.3 17 -1.867 -0.074
00:45 1004 29.65 834 24.63 -2.2 28.1 64 -8.2 17.3 -1.889 -0.074
00:46 1004 29.65 834 24.63 -2 28.4 64 -8 17.6 -1.663 -0.065
00:47 1004 29.65 834 24.63 -1.5 29.4 61 -8 17.6 -1.175 -0.046
00:48 1004 29.65 834 24.63 -0.7 30.7 59 -7.7 18.2 -0.456 -0.018
00:49 1004 29.65 834 24.63 -0.2 31.7 56 -7.8 17.9 0.105 0.004
00:50 1004 29.65 834 24.63 -0.3 31.5 58 -7.6 18.3 0.037 0.001
00:51 1004 29.65 834 24.63 -0.5 31 58 -7.9 17.9 -0.201 -0.008
00:52 1004 29.65 834 24.63 -0.9 30.3 61 -7.5 18.5 -0.552 -0.022
00:53 1004 29.65 833 24.6 -1 30.1 61 -7.5 18.4 -0.631 -0.025
00:54 1004 29.65 833 24.6 -1 30.2 61 -7.6 18.3 -0.586 -0.023
00:55 1004 29.65 833 24.6 -1 30.2 61 -7.6 18.2 -0.654 -0.026
00:56 1004 29.65 833 24.6 -1 30.2 61 -7.6 18.3 -0.682 -0.027
00:57 1004 29.65 833 24.6 -1 30.3 61 -7.6 18.3 -0.603 -0.024
00:58 1004 29.65 833 24.6 -1 30.2 61 -7.6 18.3 -0.631 -0.025
00:59 1004 29.65 833 24.6 -0.9 30.4 60 -7.6 18.3 -0.552 -0.022
01:00 1004 29.65 833 24.6 -0.5 31 59 -7.6 18.2 -0.223 -0.009
01:01 1004 29.65 833 24.6 -0.6 30.9 60 -7.5 18.4 -0.269 -0.011
01:02 1004 29.65 833 24.6 -0.6 30.8 60 -7.5 18.4 -0.348 -0.014
01:03 1004 29.65 833 24.6 -0.8 30.6 60 -7.6 18.3 -0.416 -0.016
01:04 1004 29.65 833 24.6 -0.8 30.6 58 -7.9 17.8 -0.382 -0.015
01:05 1004 29.65 833 24.6 -1 30.3 60 -7.7 18.1 -0.552 -0.022
01:06 1004 29.65 833 24.6 -1.2 29.9 62 -7.6 18.3 -0.796 -0.031
01:07 1004 29.65 833 24.6 -1.3 29.7 61 -7.9 17.8 -0.886 -0.035
01:08 1004 29.65 833 24.6 -1.6 29.1 60 -8.3 17 -1.209 -0.048
01:09 1004 29.65 833 24.6 -2 28.5 62 -8.2 17.2 -1.538 -0.061
01:10 1004 29.65 833 24.6 -2.1 28.2 64 -8.1 17.4 -1.697 -0.067
01:11 1004 29.65 833 24.6 -2 28.3 65 -7.9 17.8 -1.606 -0.063
01:12 1004 29.65 833 24.6 -1.5 29.3 62 -7.9 17.8 -0.903 -0.036
01:13 1004 29.65 833 24.6 -0.8 30.5 60 -7.7 18.2 -0.342 -0.013
01:14 1004 29.65 833 24.6 -0.6 30.9 58 -7.9 17.7 -0.252 -0.01
01:15 1004 29.65 833 24.6 -1.1 30.1 58 -8.2 17.2 -0.699 -0.028
01:16 1004 29.65 833 24.6 -1.4 29.4 63 -7.5 18.4 -1.045 -0.041
01:17 1004 29.65 833 24.6 -0.9 30.4 60 -7.6 18.3 -0.529 -0.021
01:18 1004 29.65 833 24.6 -0.5 31.2 58 -7.8 18 -0.138 -0.005
01:19 1004 29.65 833 24.6 -0.4 31.3 58 -7.8 18 -0.036 -0.001
01:20 1004 29.65 833 24.6 -0.3 31.5 58 -7.5 18.5 0.043 0.002
01:21 1004 29.65 833 24.6 -0.4 31.3 56 -8.2 17.3 -0.087 -0.003
01:22 1004 29.65 833 24.6 -1.4 29.4 58 -8.6 16.5 -1.034 -0.041
01:23 1004 29.65 833 24.6 -2.4 27.7 64 -8.3 17 -1.844 -0.073
01:24 1004 29.65 833 24.6 -3 26.7 63 -9 15.9 -2.388 -0.094
01:25 1004 29.65 833 24.6 -3.5 25.6 65 -9.1 15.6 -2.932 -0.115
01:26 1004 29.65 833 24.6 -3.8 25.2 72 -8.2 17.3 -3.181 -0.125
01:27 1004 29.65 833 24.6 -2.9 26.8 69 -7.9 17.8 -2.496 -0.098
01:28 1004 29.65 833 24.6 -1.9 28.6 62 -8.2 17.2 -1.634 -0.064
01:29 1004 29.65 833 24.6 -1.4 29.4 59 -8.5 16.7 -1.238 -0.049
01:30 1004 29.65 833 24.6 -1.9 28.5 59 -8.8 16.1 -1.702 -0.067
01:31 1004 29.65 833 24.6 -2.6 27.3 65 -8.4 16.9 -2.331 -0.092
01:32 1004 29.65 833 24.6 -2.6 27.4 66 -8.1 17.4 -2.303 -0.091
01:33 1004 29.65 833 24.6 -2.5 27.5 65 -8.2 17.2 -2.116 -0.083
01:34 1004 29.65 833 24.6 -2.4 27.7 65 -8.1 17.5 -2.105 -0.083
01:35 1004 29.65 833 24.6 -2.3 27.9 63 -8.3 17 -1.94 -0.076
01:36 1004 29.65 833 24.6 -2.2 28.1 63 -8.3 17 -1.861 -0.073
01:37 1004 29.65 833 24.6 -2.2 28 64 -8.2 17.3 -1.923 -0.076
01:38 1004 29.65 833 24.6 -2.3 27.9 65 -8 17.6 -1.969 -0.078
01:39 1004 29.65 833 24.6 -2.3 27.9 64 -8.1 17.4 -1.906 -0.075
01:40 1004 29.65 833 24.6 -2.3 27.8 65 -8.1 17.5 -1.98 -0.078
01:41 1004 29.65 833 24.6 -2.4 27.7 65 -8.2 17.3 -1.997 -0.079
01:42 1004 29.65 833 24.6 -2.5 27.6 66 -8 17.7 -2.082 -0.082
01:43 1004 29.65 833 24.6 -2.3 27.8 65 -8 17.7 -2.008 -0.079
01:44 1004 29.65 833 24.6 -2.3 27.8 64 -8.2 17.2 -2.082 -0.082
01:45 1004 29.65 833 24.6 -2.6 27.4 66 -8.2 17.3 -2.343 -0.092
01:46 1004 29.65 833 24.6 -2.9 26.8 67 -8.2 17.2 -2.615 -0.103
01:47 1004 29.65 833 24.6 -3.2 26.2 67 -8.5 16.7 -2.938 -0.116
01:48 1004 29.65 833 24.6 -3.5 25.7 68 -8.5 16.6 -3.176 -0.125
01:49 1004 29.65 833 24.6 -3.7 25.3 69 -8.7 16.4 -3.397 -0.134
01:50 1004 29.65 833 24.6 -4 24.9 71 -8.5 16.7 -3.561 -0.14
01:51 1004 29.65 833 24.6 -4 24.7 71 -8.5 16.6 -3.635 -0.143
01:52 1004 29.65 833 24.6 -4.1 24.6 71 -8.6 16.5 -3.686 -0.145
01:53 1004 29.65 833 24.6 -4.2 24.5 73 -8.4 17 -3.743 -0.147
01:54 1004 29.65 833 24.6 -4 24.7 73 -8.3 17.1 -3.595 -0.142
01:55 1004 29.65 833 24.6 -3.9 25 71 -8.4 16.9 -3.476 -0.137
01:56 1004 29.65 833 24.6 -3.7 25.3 71 -8.3 17.1 -3.351 -0.132
01:57 1004 29.65 833 24.6 -3.6 25.4 71 -8.2 17.3 -3.272 -0.129
01:58 1004 29.65 833 24.6 -3.4 25.9 71 -8 17.6 -3.011 -0.119
01:59 1004 29.65 833 24.6 -3 26.5 69 -7.9 17.8 -2.711 -0.107
02:00 1004 29.65 833 24.6 -2.7 27.2 66 -8.2 17.3 -2.371 -0.093
02:01 1004 29.65 833 24.6 -2.8 27 66 -8.3 17.1 -2.479 -0.098
02:02 1004 29.65 833 24.6 -3.1 26.5 70 -7.8 18 -2.711 -0.107
02:03 1004 29.65 833 24.6 -2.5 27.4 66 -8 17.7 -2.212 -0.087
02:04 1004 29.65 833 24.6 -1.9 28.5 64 -7.9 17.9 -1.64 -0.065
02:05 1004 29.65 833 24.6 -1.5 29.4 63 -7.7 18.1 -1.272 -0.05
02:06 1004 29.65 833 24.6 -1.3 29.7 62 -7.7 18.1 -1.068 -0.042
02:07 1004 29.65 833 24.6 -1.2 29.8 62 -7.6 18.2 -1.028 -0.04
02:08 1004 29.65 833 24.6 -1.3 29.6 62 -7.8 18 -1.096 -0.043
02:09 1004 29.65 833 24.6 -1.5 29.4 63 -7.7 18.1 -1.158 -0.046
02:10 1004 29.65 833 24.6 -1.4 29.5 62 -7.7 18.1 -1.028 -0.04
02:11 1004 29.65 833 24.6 -1.3 29.7 61 -7.9 17.9 -0.915 -0.036
02:12 1004 29.65 833 24.6 -1.3 29.6 62 -7.6 18.2 -1.005 -0.04
02:13 1004 29.65 833 24.6 -1.3 29.6 62 -7.6 18.2 -0.983 -0.039
02:14 1004 29.65 833 24.6 -1.4 29.5 61 -7.9 17.7 -1.062 -0.042
02:15 1004 29.65 833 24.6 -1.6 29 62 -8.1 17.4 -1.249 -0.049
02:16 1004 29.65 833 24.6 -2 28.5 63 -8 17.5 -1.532 -0.06
02:17 1004 29.65 833 24.6 -2.1 28.1 64 -8 17.6 -1.731 -0.068
02:18 1004 29.65 833 24.6 -2.3 27.9 65 -8 17.7 -1.838 -0.072
02:19 1004 29.65 833 24.6 -2.3 27.8 66 -7.8 17.9 -1.957 -0.077
02:20 1004 29.65 833 24.6 -2.4 27.7 66 -7.8 18 -2.014 -0.079
02:21 1004 29.65 833 24.6 -2.4 27.7 67 -7.8 18 -2.003 -0.079
02:22 1004 29.65 833 24.6 -2.5 27.6 67 -7.8 17.9 -2.014 -0.079
02:23 1004 29.65 833 24.6 -2.5 27.5 66 -8.1 17.4 -2.093 -0.082
02:24 1004 29.65 833 24.6 -2.6 27.3 67 -7.9 17.8 -2.224 -0.088
02:25 1004 29.65 833 24.6 -2.6 27.3 67 -7.8 17.9 -2.178 -0.086
02:26 1004 29.65 833 24.6 -2.5 27.6 67 -7.8 18 -2.059 -0.081
02:27 1004 29.65 833 24.6 -2.3 27.8 66 -7.8 18 -1.94 -0.076
02:28 1003 29.62 833 24.6 -2.3 27.9 66 -7.8 18 -1.872 -0.074
02:29 1003 29.62 833 24.6 -2.3 27.8 66 -7.8 18 -1.929 -0.076
02:30 1003 29.62 833 24.6 -2.4 27.7 67 -7.7 18.1 -2.037 -0.08
02:31 1003 29.62 833 24.6 -2.4 27.6 67 -7.7 18.1 -2.042 -0.08
02:32 1003 29.62 833 24.6 -2.5 27.4 68 -7.7 18.2 -2.15 -0.085
02:33 1003 29.62 833 24.6 -2.6 27.3 68 -7.8 18 -2.195 -0.086
02:34 1003 29.62 833 24.6 -2.7 27.1 68 -7.9 17.8 -2.314 -0.091
02:35 1003 29.62 832 24.57 -2.9 26.7 69 -7.9 17.8 -2.507 -0.099
02:36 1003 29.62 832 24.57 -3.1 26.4 70 -7.9 17.9 -2.677 -0.105
02:37 1003 29.62 832 24.57 -3.1 26.3 70 -7.8 17.9 -2.717 -0.107
02:38 1003 29.62 832 24.57 -3.1 26.4 70 -7.8 18 -2.694 -0.106
02:39 1003 29.62 832 24.57 -3.1 26.5 70 -7.8 18 -2.666 -0.105
02:40 1003 29.62 832 24.57 -3 26.5 70 -7.8 18 -2.632 -0.104
02:41 1003 29.62 832 24.57 -3 26.5 70 -7.8 18 -2.666 -0.105
02:42 1003 29.62 832 24.57 -3.1 26.5 70 -7.7 18.1 -2.66 -0.105
02:43 1003 29.62 832 24.57 -3.1 26.4 70 -7.7 18.1 -2.711 -0.107
02:44 1003 29.62 832 24.57 -3.2 26.3 71 -7.6 18.3 -2.756 -0.109
02:45 1003 29.62 832 24.57 -3 26.6 70 -7.7 18.2 -2.603 -0.102
02:46 1003 29.62 832 24.57 -2.8 27 69 -7.6 18.3 -2.394 -0.094
02:47 1003 29.62 832 24.57 -2.7 27.1 69 -7.7 18.2 -2.36 -0.093
02:48 1003 29.62 832 24.57 -2.8 27 69 -7.6 18.3 -2.433 -0.096
02:49 1003 29.62 832 24.57 -2.9 26.8 70 -7.7 18.2 -2.552 -0.1
02:50 1003 29.62 832 24.57 -2.9 26.8 70 -7.6 18.2 -2.513 -0.099
02:51 1003 29.62 832 24.57 -2.8 26.9 70 -7.6 18.3 -2.45 -0.096
02:52 1003 29.62 832 24.57 -2.8 26.9 70 -7.6 18.4 -2.439 -0.096
02:53 1003 29.62 832 24.57 -2.7 27.1 70 -7.5 18.4 -2.354 -0.093
02:54 1003 29.62 832 24.57 -2.7 27.1 69 -7.6 18.3 -2.32 -0.091
02:55 1003 29.62 832 24.57 -2.9 26.9 70 -7.6 18.4 -2.473 -0.097
02:56 1003 29.62 832 24.57 -2.9 26.8 70 -7.6 18.3 -2.518 -0.099
02:57 1003 29.62 832 24.57 -2.8 26.9 70 -7.6 18.3 -2.445 -0.096
02:58 1003 29.62 832 24.57 -2.7 27.2 69 -7.6 18.4 -2.309 -0.091
02:59 1003 29.62 832 24.57 -2.6 27.3 69 -7.5 18.5 -2.212 -0.087
03:00 1003 29.62 832 24.57 -2.6 27.3 70 -7.4 18.6 -2.263 -0.089
03:01 1003 29.62 832 24.57 -2.7 27.2 70 -7.4 18.6 -2.269 -0.089
03:02 1003 29.62 832 24.57 -2.7 27.1 69 -7.7 18.2 -2.337 -0.092
03:03 1003 29.62 832 24.57 -2.9 26.9 70 -7.5 18.4 -2.535 -0.1
03:04 1003 29.62 832 24.57 -2.7 27.1 69 -7.6 18.2 -2.309 -0.091
03:05 1003 29.62 832 24.57 -2.4 27.8 67 -7.6 18.3 -1.969 -0.078
03:06 1003 29.62 832 24.57 -1.9 28.5 65 -7.6 18.4 -1.566 -0.062
03:07 1003 29.62 832 24.57 -1.6 29.1 65 -7.4 18.6 -1.272 -0.05
03:08 1003 29.62 832 24.57 -1.4 29.4 64 -7.4 18.6 -1.079 -0.042
03:09 1003 29.62 832 24.57 -1.3 29.7 63 -7.4 18.7 -0.949 -0.037
03:10 1003 29.62 832 24.57 -1.3 29.7 63 -7.4 18.7 -0.926 -0.036
03:11 1003 29.62 832 24.57 -1.3 29.7 64 -7.3 18.9 -0.977 -0.038
03:12 1003 29.62 832 24.57 -1.5 29.3 65 -7.3 18.9 -1.141 -0.045
03:13 1003 29.62 832 24.57 -1.5 29.2 65 -7.3 18.8 -1.181 -0.046
03:14 1003 29.62 832 24.57 -1.5 29.3 64 -7.4 18.7 -1.136 -0.045
03:15 1003 29.62 832 24.57 -1.4 29.4 64 -7.3 18.8 -1.102 -0.043
03:16 1003 29.62 832 24.57 -1.4 29.4 64 -7.4 18.7 -1.022 -0.04
03:17 1003 29.62 832 24.57 -1.3 29.6 63 -7.4 18.7 -0.898 -0.035
03:18 1003 29.62 832 24.57 -1.3 29.7 63 -7.4 18.7 -0.915 -0.036
03:19 1003 29.62 832 24.57 -1.3 29.7 63 -7.4 18.7 -0.903 -0.036
03:20 1003 29.62 832 24.57 -1.2 29.8 63 -7.4 18.7 -0.835 -0.033
03:21 1003 29.62 832 24.57 -1.3 29.7 63 -7.3 18.8 -0.858 -0.034
03:22 1003 29.62 832 24.57 -1.5 29.4 64 -7.4 18.7 -1.056 -0.042
03:23 1003 29.62 832 24.57 -1.5 29.4 64 -7.3 18.8 -1.062 -0.042
03:24 1003 29.62 832 24.57 -1.4 29.4 64 -7.3 18.8 -1.028 -0.04
03:25 1003 29.62 832 24.57 -1.3 29.7 64 -7.3 18.9 -0.886 -0.035
03:26 1003 29.62 832 24.57 -1.2 29.9 63 -7.4 18.7 -0.801 -0.032
03:27 1003 29.62 832 24.57 -1.1 30 63 -7.3 18.8 -0.745 -0.029
03:28 1003 29.62 832 24.57 -1.1 30 63 -7.3 18.9 -0.785 -0.031
03:29 1003 29.62 832 24.57 -1.2 29.9 63 -7.3 18.9 -0.763 -0.03
03:30 1003 29.62 832 24.57 -0.9 30.4 61 -7.4 18.6 -0.531 -0.021
03:31 1003 29.62 832 24.57 -0.6 30.9 61 -7.2 19 -0.31 -0.012
03:32 1003 29.62 832 24.57 -0.6 30.9 61 -7.2 19 -0.27 -0.011
03:33 1003 29.62 832 24.57 -0.7 30.8 61 -7.2 19 -0.275 -0.011
03:34 1003 29.62 832 24.57 -0.8 30.6 62 -7.2 19.1 -0.417 -0.016
03:35 1003 29.62 832 24.57 -0.8 30.6 61 -7.3 18.8 -0.394 -0.016
03:36 1003 29.62 832 24.57 -0.7 30.7 61 -7.3 18.9 -0.303 -0.012
03:37 1003 29.62 832 24.57 -0.6 30.9 61 -7.2 19 -0.275 -0.011
03:38 1003 29.62 832 24.57 -0.7 30.8 61 -7.2 19 -0.326 -0.013
03:39 1003 29.62 832 24.57 -0.7 30.7 63 -7 19.3 -0.377 -0.015
03:40 1003 29.62 832 24.57 -0.9 30.4 63 -7 19.4 -0.536 -0.021
03:41 1003 29.62 832 24.57 -1 30.2 64 -6.9 19.5 -0.633 -0.025
03:42 1003 29.62 832 24.57 -1.2 29.9 66 -6.8 19.8 -0.809 -0.032
03:43 1003 29.62 832 24.57 -1.4 29.5 67 -6.8 19.7 -0.979 -0.039
03:44 1003 29.62 832 24.57 -1.5 29.4 67 -6.9 19.6 -1.048 -0.041
03:45 1003 29.62 832 24.57 -1.5 29.3 67 -6.9 19.5 -1.053 -0.041
03:46 1002 29.59 832 24.57 -1.3 29.6 65 -7 19.3 -0.901 -0.035
03:47 1002 29.59 832 24.57 -1.1 30.1 65 -6.9 19.5 -0.703 -0.028
03:48 1002 29.59 832 24.57 -0.9 30.3 64 -6.8 19.7 -0.584 -0.023
03:49 1002 29.59 832 24.57 -1 30.2 66 -6.6 20.2 -0.652 -0.026
03:50 1002 29.59 832 24.57 -1.1 30 66 -6.7 20 -0.709 -0.028
03:51 1002 29.59 832 24.57 -1 30.3 65 -6.7 19.9 -0.602 -0.024
03:52 1002 29.59 832 24.57 -0.9 30.4 65 -6.7 19.9 -0.506 -0.02
03:53 1002 29.59 832 24.57 -0.9 30.5 65 -6.6 20 -0.489 -0.019
03:54 1002 29.59 832 24.57 -0.8 30.5 64 -6.8 19.7 -0.466 -0.018
03:55 1002 29.59 832 24.57 -0.7 30.7 63 -6.9 19.6 -0.313 -0.012
03:56 1002 29.59 832 24.57 -0.6 31 62 -6.9 19.6 -0.177 -0.007
03:57 1002 29.59 832 24.57 -0.4 31.2 62 -6.9 19.6 -0.047 -0.002
03:58 1002 29.59 832 24.57 -0.3 31.5 61 -6.9 19.6 0.066 0.003
03:59 1002 29.59 831 24.54 -0.3 31.5 62 -6.8 19.8 0.077 0.003
04:00 1002 29.59 831 24.54 -0.3 31.4 62 -6.7 19.9 0.021 0.001
04:01 1002 29.59 831 24.54 -0.4 31.3 62 -6.8 19.8 0.013 0.001
04:02 1002 29.59 831 24.54 -0.3 31.4 62 -6.8 19.7 0.081 0.003
04:03 1002 29.59 831 24.54 -0.1 31.8 61 -6.8 19.8 0.274 0.011
04:04 1002 29.59 831 24.54 0.1 32.2 60 -6.8 19.8 0.45 0.018
04:05 1002 29.59 831 24.54 0.2 32.3 59 -6.8 19.7 0.569 0.022
04:06 1002 29.59 831 24.54 0.3 32.5 59 -6.8 19.7 0.676 0.027
04:07 1002 29.59 831 24.54 0.4 32.7 59 -6.8 19.8 0.727 0.029
04:08 1002 29.59 831 24.54 0.4 32.6 59 -6.8 19.8 0.727 0.029
04:09 1002 29.59 831 24.54 0.2 32.4 60 -6.7 20 0.58 0.023
04:10 1002 29.59 831 24.54 0.1 32.1 60 -6.7 20 0.443 0.017
04:11 1002 29.59 831 24.54 -0.2 31.7 62 -6.6 20.1 0.216 0.009
04:12 1002 29.59 831 24.54 -0.5 31.1 64 -6.5 20.3 -0.158 -0.006
04:13 1002 29.59 831 24.54 -0.9 30.4 65 -6.6 20.1 -0.488 -0.019
04:14 1002 29.59 831 24.54 -1 30.3 65 -6.7 19.9 -0.561 -0.022
04:15 1002 29.59 831 24.54 -1 30.2 65 -6.7 19.9 -0.579 -0.023
04:16 1002 29.59 831 24.54 -1.1 30.1 66 -6.7 20 -0.675 -0.027
04:17 1002 29.59 831 24.54 -1.1 29.9 66 -6.7 19.9 -0.766 -0.03
04:18 1002 29.59 831 24.54 -1.1 30 65 -6.9 19.6 -0.727 -0.029
04:19 1002 29.59 831 24.54 -1 30.1 65 -6.9 19.6 -0.659 -0.026
04:20 1002 29.59 831 24.54 -0.9 30.3 64 -6.9 19.6 -0.563 -0.022
04:21 1002 29.59 831 24.54 -0.9 30.4 64 -6.9 19.6 -0.518 -0.02
04:22 1002 29.59 831 24.54 -0.8 30.5 63 -6.9 19.5 -0.478 -0.019
04:23 1002 29.59 831 24.54 -0.8 30.5 63 -6.9 19.5 -0.439 -0.017
04:24 1002 29.59 831 24.54 -0.8 30.6 63 -6.9 19.6 -0.428 -0.017
04:25 1002 29.59 831 24.54 -0.9 30.5 64 -6.9 19.5 -0.456 -0.018
04:26 1002 29.59 831 24.54 -0.9 30.5 64 -6.9 19.6 -0.462 -0.018
04:27 1002 29.59 831 24.54 -0.9 30.3 65 -6.8 19.8 -0.541 -0.021
04:28 1002 29.59 831 24.54 -1.1 30.1 65 -6.8 19.8 -0.655 -0.026
04:29 1002 29.59 831 24.54 -1.3 29.8 66 -6.8 19.8 -0.87 -0.034
04:30 1002 29.59 831 24.54 -1.5 29.3 67 -6.8 19.8 -1.051 -0.041
04:31 1002 29.59 831 24.54 -1.6 29 67 -6.9 19.5 -1.204 -0.047
04:32 1002 29.59 831 24.54 -1.7 29 67 -7 19.5 -1.216 -0.048
04:33 1002 29.59 831 24.54 -1.7 29 67 -7 19.4 -1.233 -0.049
04:34 1002 29.59 831 24.54 -1.7 28.9 68 -6.9 19.5 -1.352 -0.053
04:35 1002 29.59 831 24.54 -1.8 28.7 69 -6.8 19.7 -1.448 -0.057
04:36 1002 29.59 831 24.54 -2 28.5 69 -6.8 19.7 -1.522 -0.06
04:37 1002 29.59 831 24.54 -1.9 28.5 69 -6.8 19.8 -1.482 -0.058
04:38 1002 29.59 831 24.54 -1.9 28.5 70 -6.8 19.8 -1.556 -0.061
04:39 1002 29.59 831 24.54 -2 28.4 70 -6.8 19.7 -1.585 -0.062
04:40 1002 29.59 831 24.54 -2 28.4 70 -6.9 19.7 -1.596 -0.063
04:41 1002 29.59 831 24.54 -2 28.4 69 -6.9 19.6 -1.602 -0.063
04:42 1002 29.59 831 24.54 -1.9 28.5 69 -6.9 19.6 -1.585 -0.062
04:43 1002 29.59 831 24.54 -1.9 28.6 69 -6.9 19.6 -1.505 -0.059
04:44 1002 29.59 831 24.54 -1.8 28.7 69 -6.9 19.6 -1.477 -0.058
04:45 1002 29.59 831 24.54 -1.8 28.8 68 -6.9 19.5 -1.409 -0.055
04:46 1002 29.59 831 24.54 -1.7 28.9 68 -7 19.5 -1.352 -0.053
04:47 1002 29.59 831 24.54 -1.7 28.9 68 -6.9 19.5 -1.403 -0.055
04:48 1002 29.59 831 24.54 -1.9 28.5 69 -6.9 19.5 -1.494 -0.059
04:49 1002 29.59 831 24.54 -2 28.3 70 -6.9 19.6 -1.596 -0.063
04:50 1002 29.59 831 24.54 -1.9 28.5 69 -6.9 19.5 -1.523 -0.06
04:51 1002 29.59 831 24.54 -1.6 29.1 67 -7.1 19.3 -1.239 -0.049
04:52 1002 29.59 831 24.54 -1.1 30 64 -7.1 19.2 -0.724 -0.029
04:53 1002 29.59 831 24.54 -0.6 31 62 -7.1 19.3 -0.191 -0.008
04:54 1002 29.59 831 24.54 -0.3 31.5 60 -7.1 19.3 0.058 0.002
04:55 1002 29.59 831 24.54 -0.1 31.7 60 -6.9 19.5 0.211 0.008
04:56 1002 29.59 831 24.54 -0.3 31.5 61 -6.8 19.8 0.086 0.003
04:57 1002 29.59 831 24.54 -0.4 31.3 61 -7 19.4 -0.01 -0
04:58 1001 29.56 831 24.54 -0.3 31.4 61 -6.9 19.6 0.007 0
04:59 1001 29.56 831 24.54 -0.3 31.5 61 -6.9 19.6 0.052 0.002
05:00 1001 29.56 831 24.54 -0.4 31.4 61 -6.9 19.6 -0.016 -0.001
05:01 1001 29.56 831 24.54 -0.5 31.1 62 -6.9 19.6 -0.095 -0.004
05:02 1001 29.56 831 24.54 -0.6 31 62 -6.9 19.6 -0.208 -0.008
05:03 1001 29.56 831 24.54 -0.5 31 62 -6.9 19.5 -0.095 -0.004
05:04 1001 29.56 831 24.54 -0.4 31.3 62 -6.8 19.7 -0.033 -0.001
05:05 1001 29.56 831 24.54 -0.4 31.3 62 -6.8 19.8 0.001 0
05:06 1001 29.56 831 24.54 -0.4 31.3 63 -6.7 20 -0.027 -0.001
05:07 1001 29.56 831 24.54 -0.6 31 63 -6.7 19.9 -0.169 -0.007
05:08 1001 29.56 831 24.54 -0.7 30.7 64 -6.7 19.9 -0.316 -0.012
05:09 1001 29.56 831 24.54 -0.8 30.6 64 -6.8 19.7 -0.39 -0.015
05:10 1001 29.56 831 24.54 -0.8 30.5 64 -6.8 19.8 -0.441 -0.017
05:11 1001 29.56 831 24.54 -0.8 30.5 63 -7 19.5 -0.446 -0.018
05:12 1001 29.56 831 24.54 -0.6 30.9 62 -6.9 19.5 -0.293 -0.012
05:13 1001 29.56 831 24.54 -0.7 30.7 63 -6.9 19.6 -0.39 -0.015
05:14 1001 29.56 831 24.54 -1.3 29.7 66 -6.8 19.7 -0.905 -0.036
05:15 1001 29.56 831 24.54 -1.5 29.2 67 -6.9 19.6 -1.194 -0.047
05:16 1001 29.56 831 24.54 -1.4 29.5 65 -7.1 19.2 -1.03 -0.041
05:17 1001 29.56 831 24.54 -0.8 30.6 62 -7.2 19 -0.565 -0.022
05:18 1001 29.56 831 24.54 -0.3 31.5 60 -7.1 19.3 -0.101 -0.004
05:19 1001 29.56 831 24.54 -0.1 31.8 60 -7 19.5 0.08 0.003
05:20 1001 29.56 831 24.54 0.2 32.4 58 -7.1 19.1 0.517 0.02
05:21 1001 29.56 831 24.54 0.7 33.2 56 -7.1 19.3 0.919 0.036
05:22 1001 29.56 831 24.54 0.9 33.6 56 -6.9 19.6 1.1 0.043
05:23 1002 29.59 831 24.54 0.7 33.2 57 -6.8 19.8 0.902 0.036
05:24 1002 29.59 831 24.54 0.4 32.7 59 -6.8 19.8 0.647 0.025
05:25 1002 29.59 831 24.54 0 32 61 -6.7 19.9 0.211 0.008
05:26 1002 29.59 831 24.54 -0.5 31.2 62 -6.9 19.6 -0.203 -0.008
05:27 1002 29.59 831 24.54 -1 30.2 64 -7 19.4 -0.65 -0.026
05:28 1002 29.59 831 24.54 -1.3 29.7 65 -7 19.4 -0.888 -0.035
05:29 1002 29.59 831 24.54 -1.2 29.8 65 -7 19.3 -0.871 -0.034
05:30 1002 29.59 831 24.54 -1 30.3 64 -7 19.4 -0.656 -0.026
05:31 1002 29.59 831 24.54 -0.8 30.6 62 -7.1 19.3 -0.463 -0.018
05:32 1002 29.59 831 24.54 -0.6 30.9 62 -7.1 19.3 -0.31 -0.012
05:33 1002 29.59 831 24.54 -0.5 31.1 61 -7.1 19.3 -0.186 -0.007
05:34 1002 29.59 831 24.54 -0.5 31.1 61 -7.1 19.2 -0.135 -0.005
05:35 1002 29.59 831 24.54 -0.5 31.1 61 -7.1 19.3 -0.146 -0.006
05:36 1002 29.59 831 24.54 -0.4 31.4 61 -7.1 19.3 -0.01 -0
05:37 1002 29.59 831 24.54 -0.3 31.5 60 -7.1 19.3 0.103 0.004
05:38 1002 29.59 831 24.54 -0.2 31.6 61 -7 19.5 0.114 0.004
05:39 1002 29.59 831 24.54 -0.3 31.4 61 -6.9 19.6 0.012 0
05:40 1002 29.59 831 24.54 -0.4 31.3 61 -6.9 19.5 -0.061 -0.002
05:41 1002 29.59 831 24.54 -0.6 30.9 62 -7.1 19.2 -0.191 -0.008
05:42 1002 29.59 831 24.54 -0.9 30.4 63 -7.1 19.3 -0.452 -0.018
05:43 1002 29.59 831 24.54 -0.9 30.4 63 -7.1 19.2 -0.509 -0.02
05:44 1002 29.59 831 24.54 -0.9 30.4 63 -7.1 19.2 -0.497 -0.02
05:45 1002 29.59 831 24.54 -0.7 30.7 62 -7.1 19.2 -0.412 -0.016
05:46 1002 29.59 831 24.54 -0.7 30.7 61 -7.4 18.7 -0.373 -0.015
05:47 1002 29.59 831 24.54 -0.9 30.4 63 -7.2 19.1 -0.463 -0.018
05:48 1002 29.59 831 24.54 -0.9 30.5 63 -7.1 19.2 -0.48 -0.019
05:49 1002 29.59 831 24.54 -0.7 30.7 63 -7 19.4 -0.367 -0.014
05:50 1002 29.59 831 24.54 -0.4 31.2 60 -7.2 19.1 -0.078 -0.003
05:51 1002 29.59 831 24.54 -0.3 31.4 61 -7 19.4 -0.016 -0.001
05:52 1002 29.59 831 24.54 -0.2 31.6 60 -7.1 19.3 0.086 0.003
05:53 1002 29.59 831 24.54 -0.5 31.2 60 -7.2 19 -0.118 -0.005
05:54 1002 29.59 831 24.54 -1.1 30.1 63 -7.2 19 -0.622 -0.024
05:55 1002 29.59 831 24.54 -1.4 29.5 64 -7.3 18.9 -0.996 -0.039
05:56 1002 29.59 831 24.54 -1.6 29.1 66 -7.3 18.9 -1.24 -0.049
05:57 1002 29.59 831 24.54 -1.7 28.9 67 -7.1 19.2 -1.375 -0.054
05:58 1002 29.59 831 24.54 -1.4 29.4 65 -7.2 19.1 -1.098 -0.043
05:59 1002 29.59 831 24.54 -1.2 29.8 64 -7.3 18.9 -0.911 -0.036
06:00 1002 29.59 831 24.54 -1.3 29.7 64 -7.2 19.1 -0.922 -0.036
06:01 1002 29.59 831 24.54 -1 30.1 62 -7.4 18.7 -0.645 -0.025
06:02 1002 29.59 831 24.54 -1.1 30 62 -7.4 18.6 -0.73 -0.029
06:03 1002 29.59 831 24.54 -1.5 29.3 65 -7.2 19 -1.126 -0.044
06:04 1002 29.59 831 24.54 -1.4 29.4 65 -7.3 18.9 -1.07 -0.042
06:05 1002 29.59 831 24.54 -1.1 30 63 -7.2 19.1 -0.809 -0.032
06:06 1002 29.59 831 24.54 -0.8 30.5 62 -7.2 19.1 -0.503 -0.02
06:07 1002 29.59 831 24.54 -0.6 31 61 -7.2 19.1 -0.31 -0.012
06:08 1002 29.59 831 24.54 -0.6 30.9 62 -7.1 19.2 -0.316 -0.012
06:09 1002 29.59 831 24.54 -0.7 30.8 58 -7.9 17.8 -0.378 -0.015
06:10 1002 29.59 831 24.54 -1.2 29.8 61 -7.9 17.9 -0.843 -0.033
06:11 1002 29.59 831 24.54 -1.8 28.7 63 -7.9 17.7 -1.364 -0.054
06:12 1002 29.59 831 24.54 -2.4 27.7 66 -8 17.7 -1.834 -0.072
06:13 1002 29.59 831 24.54 -2.9 26.8 69 -7.9 17.8 -2.248 -0.089
06:14 1002 29.59 831 24.54 -3.2 26.3 70 -7.9 17.8 -2.576 -0.101
06:15 1002 29.59 831 24.54 -3.4 26 73 -7.6 18.4 -2.786 -0.11
06:16 1002 29.59 831 24.54 -3.2 26.2 70 -8 17.7 -2.775 -0.109
06:17 1002 29.59 831 24.54 -3.7 25.4 71 -8.1 17.3 -3.086 -0.121
06:18 1002 29.59 831 24.54 -4.2 24.5 72 -8.5 16.8 -3.557 -0.14
06:19 1002 29.59 831 24.54 -4.6 23.8 75 -8.4 16.9 -3.998 -0.157
06:20 1002 29.59 831 24.54 -4.7 23.6 78 -8 17.6 -4.185 -0.165
06:21 1002 29.59 831 24.54 -4.3 24.3 78 -7.7 18.2 -3.896 -0.153
06:22 1002 29.59 831 24.54 -3.9 25 75 -7.8 18 -3.545 -0.14
06:23 1002 29.59 831 24.54 -3.7 25.4 73 -7.9 17.8 -3.347 -0.132
06:24 1002 29.59 831 24.54 -3.7 25.4 73 -7.8 17.9 -3.268 -0.129
06:25 1002 29.59 831 24.54 -3.6 25.4 72 -8 17.6 -3.296 -0.13
06:26 1002 29.59 831 24.54 -3.9 25 73 -8 17.6 -3.455 -0.136
06:27 1002 29.59 831 24.54 -4.1 24.7 75 -7.9 17.8 -3.613 -0.142
06:28 1002 29.59 831 24.54 -4.1 24.7 76 -7.7 18.1 -3.653 -0.144
06:29 1002 29.59 831 24.54 -4.1 24.7 74 -8 17.6 -3.636 -0.143
06:30 1002 29.59 831 24.54 -4.1 24.6 75 -8 17.6 -3.698 -0.146
06:31 1002 29.59 831 24.54 -4.2 24.5 74 -8.1 17.4 -3.755 -0.148
06:32 1002 29.59 831 24.54 -4.3 24.3 76 -7.8 17.9 -3.959 -0.156
06:33 1002 29.59 831 24.54 -4.4 24.2 77 -7.9 17.8 -3.919 -0.154
06:34 1002 29.59 831 24.54 -4.4 24.1 77 -7.8 17.9 -3.885 -0.153
06:35 1002 29.59 831 24.54 -4.2 24.4 77 -7.7 18.2 -3.743 -0.147
06:36 1002 29.59 831 24.54 -4 24.8 75 -7.8 18 -3.421 -0.135
06:37 1002 29.59 831 24.54 -3.8 25.1 72 -8.1 17.5 -3.307 -0.13
06:38 1002 29.59 831 24.54 -3.9 25 74 -7.8 18 -3.381 -0.133
06:39 1002 29.59 831 24.54 -3.9 25 74 -7.9 17.8 -3.432 -0.135
06:40 1002 29.59 831 24.54 -4.1 24.7 74 -8 17.6 -3.659 -0.144
06:41 1002 29.59 831 24.54 -4.2 24.4 76 -7.9 17.8 -3.743 -0.147
06:42 1002 29.59 831 24.54 -4.1 24.6 76 -7.8 18 -3.67 -0.144
06:43 1002 29.59 831 24.54 -4 24.8 75 -7.7 18.1 -3.63 -0.143
06:44 1002 29.59 831 24.54 -3.9 25 75 -7.7 18.1 -3.562 -0.14
06:45 1002 29.59 831 24.54 -3.9 25 74 -7.9 17.8 -3.476 -0.137
06:46 1002 29.59 831 24.54 -3.9 25 73 -8 17.6 -3.487 -0.137
06:47 1002 29.59 831 24.54 -3.9 25 74 -7.8 17.9 -3.493 -0.138
06:48 1002 29.59 831 24.54 -3.9 24.9 72 -8.2 17.2 -3.622 -0.143
06:49 1002 29.59 831 24.54 -4.1 24.7 76 -7.7 18.1 -3.724 -0.147
06:50 1002 29.59 831 24.54 -3.9 25 73 -8 17.6 -3.583 -0.141
06:51 1002 29.59 831 24.54 -4.1 24.5 71 -8.7 16.3 -3.809 -0.15
06:52 1002 29.59 831 24.54 -4.7 23.5 75 -8.5 16.6 -4.335 -0.171
06:53 1002 29.59 831 24.54 -4.7 23.6 78 -8 17.7 -4.29 -0.169
06:54 1002 29.59 831 24.54 -4.3 24.3 75 -8.1 17.4 -3.927 -0.155
06:55 1002 29.59 831 24.54 -4 24.9 74 -8 17.6 -3.649 -0.144
06:56 1002 29.59 831 24.54 -3.9 25.1 70 -8.5 16.6 -3.525 -0.139
06:57 1002 29.59 831 24.54 -4.2 24.4 70 -8.9 16 -3.926 -0.155
06:58 1002 29.59 831 24.54 -4.7 23.5 71 -9.3 15.3 -4.436 -0.175
06:59 1002 29.59 831 24.54 -5.2 22.6 77 -8.7 16.3 -4.946 -0.195
07:00 1002 29.59 831 24.54 -5.4 22.2 78 -8.6 16.5 -5.031 -0.198
07:01 1002 29.59 831 24.54 -5.4 22.2 79 -8.6 16.5 -4.957 -0.195
07:02 1002 29.59 831 24.54 -5.4 22.3 79 -8.4 16.8 -4.917 -0.194
07:03 1002 29.59 831 24.54 -5.2 22.7 79 -8.2 17.2 -4.758 -0.187
07:04 1002 29.59 831 24.54 -4.9 23.1 79 -8 17.5 -4.504 -0.177
07:05 1002 29.59 831 24.54 -4.6 23.7 78 -7.8 18 -4.181 -0.165
07:06 1002 29.59 831 24.54 -4.2 24.5 76 -7.8 18 -3.806 -0.15
07:07 1002 29.59 831 24.54 -3.9 25 72 -8.3 17.1 -3.489 -0.137
07:08 1002 29.59 831 24.54 -4.1 24.6 73 -8.3 17.1 -3.744 -0.147
07:09 1002 29.59 831 24.54 -4.4 24.1 72 -8.7 16.4 -4.033 -0.159
07:10 1002 29.59 831 24.54 -4.7 23.5 76 -8.3 17 -4.316 -0.17
07:11 1002 29.59 831 24.54 -4.7 23.6 72 -9 15.8 -4.327 -0.17
07:12 1002 29.59 831 24.54 -4.9 23.2 75 -8.7 16.4 -4.541 -0.179
07:13 1002 29.59 831 24.54 -5.1 22.9 75 -8.8 16.2 -4.632 -0.182
07:14 1002 29.59 831 24.54 -5.2 22.6 75 -8.9 15.9 -4.796 -0.189
07:15 1002 29.59 831 24.54 -5.4 22.2 77 -8.9 16 -4.96 -0.195
07:16 1002 29.59 831 24.54 -5.5 22.1 79 -8.7 16.4 -5.045 -0.199
07:17 1002 29.59 831 24.54 -5.5 22.2 78 -8.7 16.3 -5.016 -0.197
07:18 1002 29.59 831 24.54 -5.5 22.2 78 -8.7 16.3 -5.01 -0.197
07:19 1002 29.59 831 24.54 -5.4 22.2 77 -8.9 16.1 -5.055 -0.199
07:20 1002 29.59 831 24.54 -5.5 22.1 78 -8.7 16.4 -5.094 -0.201
07:21 1002 29.59 831 24.54 -5.5 22.1 79 -8.5 16.7 -5.026 -0.198
07:22 1002 29.59 831 24.54 -5.4 22.3 80 -8.4 16.9 -4.941 -0.195
07:23 1002 29.59 831 24.54 -5.2 22.6 79 -8.3 17.1 -4.827 -0.19
07:24 1002 29.59 831 24.54 -5 23 78 -8.2 17.2 -4.714 -0.186
07:25 1002 29.59 831 24.54 -4.9 23.2 75 -8.6 16.5 -4.634 -0.182
07:26 1002 29.59 831 24.54 -5.1 22.8 76 -8.7 16.4 -4.798 -0.189
07:27 1002 29.59 831 24.54 -5.2 22.6 78 -8.5 16.7 -4.855 -0.191
07:28 1002 29.59 831 24.54 -5.1 22.9 77 -8.6 16.6 -4.736 -0.186
07:29 1002 29.59 831 24.54 -5.1 22.8 76 -8.8 16.2 -4.809 -0.189
07:30 1002 29.59 831 24.54 -5.2 22.6 78 -8.5 16.8 -4.849 -0.191
07:31 1002 29.59 831 24.54 -5.1 22.9 76 -8.7 16.4 -4.713 -0.186
07:32 1002 29.59 831 24.54 -5 23.1 78 -8.2 17.3 -4.616 -0.182
07:33 1002 29.59 831 24.54 -4.7 23.6 77 -8.1 17.4 -4.282 -0.169
07:34 1002 29.59 831 24.54 -4.4 24.1 74 -8.3 17.1 -3.993 -0.157
07:35 1002 29.59 831 24.54 -4.3 24.2 72 -8.6 16.5 -4.049 -0.159
07:36 1002 29.59 831 24.54 -4.5 23.9 73 -8.6 16.6 -4.157 -0.164
07:37 1002 29.59 831 24.54 -4.5 23.8 75 -8.4 16.9 -4.242 -0.167
07:38 1002 29.59 831 24.54 -4.4 24 76 -8 17.6 -4.123 -0.162
07:39 1002 29.59 831 24.54 -4.2 24.4 73 -8.3 17.1 -3.913 -0.154
07:40 1002 29.59 831 24.54 -4.2 24.4 75 -8.1 17.5 -3.913 -0.154
07:41 1002 29.59 831 24.54 -4.1 24.7 76 -7.7 18.1 -3.754 -0.148
07:42 1002 29.59 831 24.54 -3.8 25.2 72 -8.2 17.3 -3.511 -0.138
07:43 1002 29.59 831 24.54 -3.9 24.9 71 -8.5 16.8 -3.652 -0.144
07:44 1002 29.59 831 24.54 -4.1 24.5 74 -8.1 17.4 -3.811 -0.15
07:45 1002 29.59 831 24.54 -4.1 24.7 76 -7.8 18 -3.726 -0.147
07:46 1002 29.59 831 24.54 -3.8 25.2 73 -7.8 17.9 -3.369 -0.133
07:47 1002 29.59 831 24.54 -3.5 25.8 74 -7.4 18.7 -3.193 -0.126
07:48 1002 29.59 831 24.54 -3 26.7 71 -7.5 18.5 -2.729 -0.107
07:49 1002 29.59 831 24.54 -2.7 27.2 69 -7.6 18.4 -2.462 -0.097
07:50 1002 29.59 831 24.54 -2.5 27.6 69 -7.4 18.7 -2.224 -0.088
07:51 1002 29.59 831 24.54 -2.3 27.9 69 -7.2 19 -2.099 -0.083
07:52 1002 29.59 831 24.54 -2 28.4 66 -7.5 18.4 -1.827 -0.072
07:53 1002 29.59 831 24.54 -2 28.5 67 -7.4 18.7 -1.691 -0.067
07:54 1002 29.59 831 24.54 -2 28.4 66 -7.5 18.5 -1.742 -0.069
07:55 1002 29.59 831 24.54 -2.1 28.2 67 -7.5 18.5 -1.833 -0.072
07:56 1002 29.59 831 24.54 -2.3 27.9 66 -7.9 17.8 -1.952 -0.077
07:57 1002 29.59 831 24.54 -2.6 27.3 68 -7.8 18 -2.286 -0.09
07:58 1002 29.59 831 24.54 -2.9 26.9 71 -7.4 18.6 -2.485 -0.098
07:59 1002 29.59 832 24.57 -2.5 27.5 71 -7.1 19.3 -2.252 -0.089
08:00 1002 29.59 832 24.57 -2.2 28 64 -8.2 17.2 -1.969 -0.078
08:01 1002 29.59 832 24.57 -2.8 27 68 -8 17.7 -2.36 -0.093
08:02 1002 29.59 832 24.57 -3.2 26.2 70 -7.9 17.8 -2.757 -0.109
08:03 1002 29.59 832 24.57 -3.3 26.1 72 -7.5 18.4 -2.825 -0.111
08:04 1002 29.59 832 24.57 -2.9 26.8 69 -7.8 18 -2.524 -0.099
08:05 1002 29.59 832 24.57 -2.7 27.1 71 -7.3 18.9 -2.275 -0.09
08:06 1002 29.59 832 24.57 -2.2 28.1 69 -7.2 19.1 -1.799 -0.071
08:07 1002 29.59 832 24.57 -1.7 28.9 65 -7.4 18.6 -1.481 -0.058
08:08 1002 29.59 832 24.57 -1.7 29 66 -7.3 18.9 -1.419 -0.056
08:09 1002 29.59 832 24.57 -1.7 29 65 -7.5 18.5 -1.408 -0.055
08:10 1003 29.62 832 24.57 -1.8 28.7 65 -7.5 18.6 -1.487 -0.059
08:11 1003 29.62 832 24.57 -1.8 28.7 66 -7.3 18.9 -1.515 -0.06
08:12 1003 29.62 832 24.57 -1.8 28.8 66 -7.2 19 -1.47 -0.058
08:13 1003 29.62 832 24.57 -1.8 28.8 65 -7.5 18.4 -1.481 -0.058
08:14 1003 29.62 832 24.57 -1.9 28.5 65 -7.6 18.3 -1.595 -0.063
08:15 1003 29.62 832 24.57 -2.1 28.3 64 -8 17.7 -1.731 -0.068
08:16 1003 29.62 832 24.57 -2.4 27.7 67 -7.7 18.2 -1.986 -0.078
08:17 1003 29.62 832 24.57 -2.6 27.4 69 -7.5 18.5 -2.139 -0.084
08:18 1003 29.62 832 24.57 -2.5 27.5 67 -7.8 17.9 -2.156 -0.085
08:19 1003 29.62 832 24.57 -2.7 27.2 68 -7.7 18.1 -2.382 -0.094
08:20 1003 29.62 832 24.57 -2.9 26.7 71 -7.5 18.4 -2.654 -0.104
08:21 1003 29.62 832 24.57 -3 26.6 69 -7.9 17.8 -2.637 -0.104
08:22 1003 29.62 832 24.57 -3.2 26.3 70 -7.8 18 -2.711 -0.107
08:23 1003 29.62 832 24.57 -3.3 26.2 72 -7.7 18.2 -2.824 -0.111
08:24 1003 29.62 832 24.57 -3.2 26.2 72 -7.7 18.2 -2.819 -0.111
08:25 1003 29.62 832 24.57 -3.2 26.3 71 -7.6 18.3 -2.762 -0.109
08:26 1003 29.62 832 24.57 -3.1 26.4 71 -7.6 18.3 -2.745 -0.108
08:27 1003 29.62 832 24.57 -3.1 26.5 71 -7.7 18.2 -2.677 -0.105
08:28 1003 29.62 832 24.57 -3 26.5 71 -7.5 18.5 -2.62 -0.103
08:29 1003 29.62 832 24.57 -2.9 26.7 70 -7.6 18.3 -2.524 -0.099
08:30 1003 29.62 832 24.57 -2.9 26.9 71 -7.4 18.7 -2.496 -0.098
08:31 1003 29.62 832 24.57 -2.6 27.3 70 -7.3 18.8 -2.286 -0.09
08:32 1003 29.62 832 24.57 -2.5 27.4 69 -7.5 18.5 -2.173 -0.086
08:33 1003 29.62 832 24.57 -2.7 27.1 70 -7.5 18.5 -2.326 -0.092
08:34 1003 29.62 832 24.57 -3 26.6 71 -7.5 18.4 -2.507 -0.099
08:35 1003 29.62 832 24.57 -3.4 25.9 73 -7.6 18.4 -2.858 -0.113
08:36 1003 29.62 832 24.57 -3.5 25.7 74 -7.5 18.4 -3.04 -0.12
08:37 1003 29.62 832 24.57 -3.3 26 73 -7.5 18.4 -2.943 -0.116
08:38 1003 29.62 832 24.57 -3.1 26.4 72 -7.4 18.6 -2.615 -0.103
08:39 1003 29.62 832 24.57 -2.9 26.8 70 -7.6 18.3 -2.411 -0.095
08:40 1003 29.62 832 24.57 -2.9 26.8 71 -7.5 18.5 -2.507 -0.099
08:41 1003 29.62 832 24.57 -3 26.6 72 -7.5 18.6 -2.615 -0.103
08:42 1003 29.62 832 24.57 -3.2 26.2 73 -7.3 18.8 -2.773 -0.109
08:43 1003 29.62 832 24.57 -3.5 25.7 75 -7.4 18.8 -3.057 -0.12
08:44 1003 29.62 832 24.57 -3.5 25.7 74 -7.5 18.5 -3.085 -0.121
08:45 1003 29.62 832 24.57 -3.3 26 73 -7.5 18.6 -2.949 -0.116
08:46 1003 29.62 832 24.57 -3.4 25.9 75 -7.3 18.9 -3.011 -0.119
08:47 1003 29.62 832 24.57 -3.1 26.4 73 -7.3 18.8 -2.768 -0.109
08:48 1003 29.62 832 24.57 -3.2 26.3 74 -7.2 19.1 -2.768 -0.109
08:49 1003 29.62 832 24.57 -3 26.7 77 -6.4 20.5 -2.552 -0.1
08:50 1003 29.62 832 24.57 -2 28.5 70 -6.7 19.9 -1.64 -0.065
08:51 1003 29.62 832 24.57 -1.4 29.5 68 -6.6 20.2 -1.209 -0.048
08:52 1003 29.62 832 24.57 -1.1 30 66 -6.6 20.1 -0.898 -0.035
08:53 1003 29.62 832 24.57 -1.3 29.7 68 -6.4 20.5 -0.988 -0.039
08:54 1003 29.62 832 24.57 -1.1 29.9 66 -6.7 19.9 -0.875 -0.034
08:55 1003 29.62 832 24.57 -0.6 30.9 64 -6.5 20.2 -0.433 -0.017
08:56 1003 29.62 832 24.57 -0.5 31.1 64 -6.4 20.4 -0.252 -0.01
08:57 1003 29.62 832 24.57 -1 30.2 67 -6.3 20.6 -0.507 -0.02
08:58 1003 29.62 832 24.57 -1.4 29.5 70 -6.3 20.7 -0.881 -0.035
08:59 1003 29.62 832 24.57 -1.8 28.8 71 -6.4 20.4 -1.289 -0.051
09:00 1003 29.62 832 24.57 -1.9 28.6 70 -6.6 20.1 -1.408 -0.055
09:01 1003 29.62 832 24.57 -1.9 28.6 70 -6.7 19.9 -1.43 -0.056
09:02 1003 29.62 832 24.57 -2 28.5 70 -6.7 20 -1.493 -0.059
09:03 1003 29.62 832 24.57 -1.9 28.6 70 -6.7 20 -1.425 -0.056
09:04 1003 29.62 832 24.57 -1.8 28.8 70 -6.6 20.2 -1.379 -0.054
09:05 1003 29.62 832 24.57 -1.9 28.7 70 -6.6 20.1 -1.447 -0.057
09:06 1003 29.62 832 24.57 -1.9 28.6 70 -6.6 20.2 -1.481 -0.058
09:07 1003 29.62 832 24.57 -1.9 28.6 71 -6.5 20.2 -1.493 -0.059
09:08 1003 29.62 832 24.57 -2 28.5 71 -6.5 20.3 -1.51 -0.059
09:09 1003 29.62 832 24.57 -2.1 28.3 72 -6.5 20.2 -1.561 -0.061
09:10 1003 29.62 832 24.57 -2 28.4 71 -6.5 20.3 -1.521 -0.06
09:11 1003 29.62 832 24.57 -1.9 28.6 71 -6.5 20.3 -1.476 -0.058
09:12 1003 29.62 832 24.57 -1.9 28.5 71 -6.6 20.2 -1.436 -0.057
09:13 1003 29.62 832 24.57 -1.9 28.6 73 -6.1 21.1 -1.436 -0.057
09:14 1003 29.62 832 24.57 -2.1 28.3 73 -6.2 20.8 -1.566 -0.062
09:15 1003 29.62 832 24.57 -2.2 28 72 -6.6 20.1 -1.759 -0.069
09:16 1003 29.62 833 24.6 -2.4 27.6 73 -6.7 20 -1.974 -0.078
09:17 1003 29.62 833 24.6 -2.6 27.4 74 -6.6 20.1 -2.082 -0.082
09:18 1003 29.62 833 24.6 -2.7 27.1 76 -6.5 20.3 -2.265 -0.089
09:19 1003 29.62 833 24.6 -2.9 26.8 76 -6.6 20.2 -2.338 -0.092
09:20 1003 29.62 833 24.6 -3 26.7 76 -6.6 20.1 -2.463 -0.097
09:21 1003 29.62 833 24.6 -3 26.6 76 -6.7 20 -2.498 -0.098
09:22 1003 29.62 833 24.6 -2.9 26.7 75 -6.8 19.8 -2.509 -0.099
09:23 1003 29.62 833 24.6 -2.9 26.7 74 -6.9 19.6 -2.447 -0.096
09:24 1003 29.62 833 24.6 -2.9 26.8 74 -6.8 19.8 -2.397 -0.094
09:25 1003 29.62 833 24.6 -2.8 27 75 -6.6 20.2 -2.374 -0.093
09:26 1004 29.65 833 24.6 -2.8 26.9 77 -6.4 20.5 -2.357 -0.093
09:27 1004 29.65 833 24.6 -2.8 26.9 77 -6.3 20.6 -2.324 -0.091
09:28 1003 29.62 833 24.6 -2.8 27 77 -6.3 20.6 -2.392 -0.094
09:29 1003 29.62 833 24.6 -2.8 27 77 -6.2 20.8 -2.33 -0.092
09:30 1003 29.62 833 24.6 -2.8 26.9 78 -6.1 21 -2.387 -0.094
09:31 1003 29.62 833 24.6 -2.9 26.8 77 -6.3 20.6 -2.466 -0.097
09:32 1003 29.62 833 24.6 -2.9 26.9 77 -6.3 20.6 -2.489 -0.098
09:33 1003 29.62 833 24.6 -2.9 26.8 77 -6.3 20.7 -2.512 -0.099
09:34 1003 29.62 833 24.6 -2.8 26.9 77 -6.3 20.7 -2.466 -0.097
09:35 1003 29.62 833 24.6 -2.8 27 77 -6.3 20.7 -2.455 -0.097
09:36 1003 29.62 833 24.6 -2.7 27.1 77 -6.3 20.7 -2.387 -0.094
09:37 1003 29.62 833 24.6 -2.7 27.1 76 -6.4 20.6 -2.365 -0.093
09:38 1004 29.65 833 24.6 -2.7 27.1 75 -6.5 20.4 -2.331 -0.092
09:39 1004 29.65 833 24.6 -2.7 27.1 77 -6.3 20.7 -2.297 -0.09
09:40 1004 29.65 833 24.6 -2.8 27.1 76 -6.5 20.3 -2.303 -0.091
09:41 1004 29.65 833 24.6 -2.7 27.1 75 -6.5 20.3 -2.314 -0.091
09:42 1004 29.65 833 24.6 -2.7 27.1 75 -6.5 20.3 -2.263 -0.089
09:43 1004 29.65 833 24.6 -2.7 27.1 76 -6.4 20.5 -2.241 -0.088
09:44 1004 29.65 833 24.6 -2.7 27.2 77 -6.3 20.7 -2.235 -0.088
09:45 1004 29.65 833 24.6 -2.7 27.2 76 -6.3 20.6 -2.229 -0.088
09:46 1004 29.65 833 24.6 -2.6 27.3 76 -6.3 20.7 -2.161 -0.085
09:47 1004 29.65 833 24.6 -2.6 27.4 76 -6.3 20.6 -2.145 -0.084
09:48 1004 29.65 833 24.6 -2.6 27.4 75 -6.4 20.4 -2.139 -0.084
09:49 1004 29.65 833 24.6 -2.6 27.4 74 -6.6 20.1 -2.116 -0.083
09:50 1004 29.65 833 24.6 -2.5 27.5 73 -6.6 20.1 -2.031 -0.08
09:51 1004 29.65 833 24.6 -2.4 27.7 75 -6.3 20.6 -1.969 -0.078
09:52 1004 29.65 833 24.6 -2.4 27.8 75 -6.3 20.7 -1.929 -0.076
09:53 1004 29.65 833 24.6 -2.3 27.8 75 -6.2 20.8 -1.891 -0.074
09:54 1004 29.65 833 24.6 -2.3 27.9 74 -6.2 20.8 -1.806 -0.071
09:55 1004 29.65 833 24.6 -2.2 28.1 73 -6.3 20.7 -1.71 -0.067
09:56 1004 29.65 833 24.6 -2 28.3 72 -6.4 20.5 -1.626 -0.064
09:57 1004 29.65 833 24.6 -2 28.5 71 -6.5 20.3 -1.575 -0.062
09:58 1004 29.65 833 24.6 -2 28.5 70 -6.6 20 -1.575 -0.062
09:59 1004 29.65 833 24.6 -1.9 28.6 70 -6.6 20.1 -1.542 -0.061
10:00 1004 29.65 833 24.6 -1.8 28.7 70 -6.5 20.3 -1.548 -0.061
10:01 1004 29.65 833 24.6 -1.9 28.7 71 -6.5 20.3 -1.531 -0.06
10:02 1004 29.65 833 24.6 -1.9 28.6 71 -6.5 20.3 -1.514 -0.06
10:03 1004 29.65 833 24.6 -1.9 28.5 72 -6.4 20.5 -1.514 -0.06
10:04 1004 29.65 833 24.6 -2.1 28.3 73 -6.3 20.6 -1.52 -0.06
10:05 1004 29.65 833 24.6 -2.1 28.2 74 -6.2 20.8 -1.566 -0.062
10:06 1004 29.65 833 24.6 -2.1 28.1 75 -6.1 21.1 -1.566 -0.062
10:07 1004 29.65 833 24.6 -2.1 28.3 77 -5.7 21.8 -1.555 -0.061
10:08 1004 29.65 833 24.6 -2 28.3 76 -5.7 21.7 -1.538 -0.061
10:09 1004 29.65 833 24.6 -2.1 28.2 76 -5.9 21.4 -1.583 -0.062
10:10 1004 29.65 833 24.6 -2.2 28 77 -5.8 21.6 -1.674 -0.066
10:11 1004 29.65 833 24.6 -2.3 27.9 76 -6 21.3 -1.72 -0.068
10:12 1004 29.65 833 24.6 -2.4 27.8 76 -6 21.2 -1.805 -0.071
10:13 1004 29.65 833 24.6 -2.4 27.7 75 -6.2 20.8 -1.873 -0.074
10:14 1004 29.65 833 24.6 -2.4 27.6 75 -6.3 20.6 -1.896 -0.075
10:15 1004 29.65 833 24.6 -2.4 27.7 74 -6.3 20.6 -1.879 -0.074
10:16 1004 29.65 833 24.6 -2.3 27.8 74 -6.3 20.6 -1.811 -0.071
10:17 1004 29.65 833 24.6 -2.1 28.1 73 -6.3 20.6 -1.726 -0.068
10:18 1004 29.65 833 24.6 -2 28.3 73 -6.3 20.6 -1.601 -0.063
10:19 1004 29.65 833 24.6 -1.9 28.6 71 -6.4 20.4 -1.465 -0.058
10:20 1004 29.65 833 24.6 -1.9 28.6 70 -6.5 20.2 -1.392 -0.055
10:21 1004 29.65 833 24.6 -2 28.5 74 -6 21.1 -1.42 -0.056
10:22 1004 29.65 833 24.6 -2.2 28 77 -5.7 21.7 -1.652 -0.065
10:23 1004 29.65 833 24.6 -2.4 27.6 78 -5.8 21.5 -1.879 -0.074
10:24 1004 29.65 833 24.6 -2.5 27.5 77 -5.9 21.3 -2.004 -0.079
10:25 1004 29.65 833 24.6 -2.4 27.6 75 -6.4 20.5 -1.97 -0.078
10:26 1004 29.65 833 24.6 -2.3 27.9 74 -6.3 20.6 -1.8 -0.071
10:27 1004 29.65 833 24.6 -2.1 28.2 74 -6.2 20.9 -1.658 -0.065
10:28 1004 29.65 833 24.6 -2.1 28.3 75 -6 21.2 -1.613 -0.064
10:29 1004 29.65 833 24.6 -2.1 28.2 76 -5.8 21.6 -1.619 -0.064
10:30 1004 29.65 833 24.6 -2.1 28.2 76 -5.7 21.7 -1.675 -0.066
10:31 1004 29.65 833 24.6 -2.2 28.1 77 -5.7 21.7 -1.641 -0.065
10:32 1004 29.65 833 24.6 -2.2 28.1 77 -5.7 21.8 -1.67 -0.066
10:33 1004 29.65 833 24.6 -2.2 28.1 77 -5.7 21.8 -1.658 -0.065
10:34 1004 29.65 833 24.6 -2.2 28.1 77 -5.6 21.9 -1.681 -0.066
10:35 1004 29.65 833 24.6 -2.1 28.2 77 -5.6 21.9 -1.653 -0.065
10:36 1004 29.65 833 24.6 -2.1 28.3 76 -5.8 21.6 -1.63 -0.064
10:37 1004 29.65 833 24.6 -1.9 28.5 73 -6.2 20.8 -1.511 -0.059
10:38 1004 29.65 833 24.6 -1.5 29.2 69 -6.4 20.4 -1.137 -0.045
10:39 1004 29.65 833 24.6 -1.1 30 69 -6.1 21 -0.752 -0.03
10:40 1004 29.65 833 24.6 -0.8 30.5 67 -6.2 20.9 -0.441 -0.017
10:41 1004 29.65 833 24.6 -0.7 30.8 67 -6.1 21 -0.299 -0.012
10:42 1004 29.65 833 24.6 -0.8 30.6 69 -5.7 21.7 -0.361 -0.014
10:43 1004 29.65 833 24.6 -1 30.2 71 -5.6 21.9 -0.571 -0.022
10:44 1004 29.65 833 24.6 -1.2 29.9 70 -5.9 21.4 -0.679 -0.027
10:45 1004 29.65 833 24.6 -1.1 30.1 69 -6 21.1 -0.616 -0.024
10:46 1004 29.65 833 24.6 -0.9 30.5 70 -5.7 21.8 -0.418 -0.016
10:47 1004 29.65 833 24.6 -0.7 30.7 70 -5.5 22.1 -0.265 -0.01
10:48 1004 29.65 833 24.6 -0.6 31 69 -5.5 22.1 -0.169 -0.007
10:49 1004 29.65 833 24.6 -0.5 31.1 69 -5.6 22 -0.033 -0.001
10:50 1004 29.65 833 24.6 -0.4 31.3 68 -5.5 22 0.092 0.004
10:51 1004 29.65 833 24.6 -0.4 31.4 68 -5.6 22 0.171 0.007
10:52 1004 29.65 833 24.6 -0.4 31.3 68 -5.6 22 0.199 0.008
10:53 1004 29.65 833 24.6 -0.4 31.2 71 -5.1 22.8 0.228 0.009
10:54 1004 29.65 833 24.6 -0.5 31 71 -5.2 22.6 0.16 0.006
10:55 1004 29.65 833 24.6 -0.6 30.9 71 -5.3 22.5 0.001 0
10:56 1004 29.65 833 24.6 -0.7 30.7 73 -4.9 23.1 -0.067 -0.003
10:57 1004 29.65 833 24.6 -0.8 30.6 71 -5.5 22.1 -0.169 -0.007
10:58 1004 29.65 833 24.6 -0.7 30.7 71 -5.3 22.4 -0.254 -0.01
10:59 1004 29.65 833 24.6 -0.8 30.6 70 -5.5 22 -0.282 -0.011
11:00 1004 29.65 833 24.6 -0.7 30.8 70 -5.6 22 -0.197 -0.008
11:01 1004 29.65 833 24.6 -0.5 31.1 69 -5.5 22.1 -0.005 -0
11:02 1004 29.65 833 24.6 -0.4 31.3 67 -5.7 21.8 0.16 0.006
11:03 1004 29.65 833 24.6 -0.4 31.4 69 -5.3 22.4 0.25 0.01
11:04 1004 29.65 833 24.6 -0.4 31.3 70 -5.3 22.5 0.256 0.01
11:05 1004 29.65 833 24.6 -0.4 31.3 71 -5 23.1 0.222 0.009
11:06 1004 29.65 833 24.6 -0.3 31.4 70 -5.1 22.8 0.25 0.01
11:07 1004 29.65 833 24.6 -0.2 31.6 71 -4.8 23.3 0.296 0.012
11:08 1004 29.65 833 24.6 -0.2 31.7 73 -4.5 23.9 0.318 0.013
11:09 1003 29.62 833 24.6 -0.1 31.8 73 -4.5 24 0.397 0.016
11:10 1003 29.62 833 24.6 -0.1 31.9 71 -4.7 23.5 0.493 0.019
11:11 1003 29.62 833 24.6 -0 32 71 -4.7 23.6 0.6 0.024
11:12 1003 29.62 833 24.6 0.1 32.2 71 -4.5 23.8 0.741 0.029
11:13 1003 29.62 833 24.6 0.1 32.3 71 -4.6 23.8 0.854 0.034
11:14 1003 29.62 833 24.6 0.2 32.4 71 -4.5 23.9 0.928 0.037
11:15 1003 29.62 833 24.6 0.2 32.4 70 -4.6 23.8 0.814 0.032
11:16 1003 29.62 833 24.6 0.3 32.5 69 -4.8 23.3 0.848 0.033
11:17 1003 29.62 833 24.6 0.4 32.7 68 -4.8 23.4 1.006 0.04
11:18 1003 29.62 833 24.6 0.6 33 66 -5 23.1 1.158 0.046
11:19 1003 29.62 833 24.6 0.6 33.1 67 -4.8 23.3 1.238 0.049
11:20 1003 29.62 833 24.6 0.7 33.2 69 -4.4 24.1 1.317 0.052
11:21 1003 29.62 833 24.6 0.7 33.2 70 -4.2 24.4 1.316 0.052
11:22 1003 29.62 833 24.6 0.6 33.1 70 -4.2 24.5 1.237 0.049
11:23 1003 29.62 833 24.6 0.6 33.1 70 -4.2 24.4 1.226 0.048
11:24 1003 29.62 832 24.57 0.6 33.1 69 -4.3 24.2 1.252 0.049
11:25 1003 29.62 832 24.57 0.6 33.1 70 -4.3 24.3 1.213 0.048
11:26 1003 29.62 833 24.6 0.6 33.1 70 -4.2 24.4 1.15 0.045
11:27 1003 29.62 832 24.57 0.5 33 70 -4.3 24.3 1.098 0.043
11:28 1003 29.62 832 24.57 0.6 33.1 70 -4.3 24.3 1.075 0.042
11:29 1003 29.62 832 24.57 0.6 33.1 70 -4.3 24.2 1.052 0.041
11:30 1003 29.62 832 24.57 0.6 33 70 -4.2 24.5 1.023 0.04
11:31 1003 29.62 832 24.57 0.5 32.9 70 -4.4 24.1 1.006 0.04
11:32 1003 29.62 832 24.57 0.4 32.8 71 -4.2 24.5 0.881 0.035
11:33 1003 29.62 832 24.57 0.3 32.6 72 -4.1 24.6 0.778 0.031
11:34 1003 29.62 832 24.57 0.3 32.5 68 -4.8 23.3 0.727 0.029
11:35 1003 29.62 832 24.57 0.5 32.9 71 -4.2 24.5 0.92 0.036
11:36 1003 29.62 832 24.57 0.5 32.9 68 -4.7 23.6 0.976 0.038
11:37 1003 29.62 832 24.57 0.7 33.3 68 -4.6 23.7 1.163 0.046
11:38 1003 29.62 832 24.57 0.9 33.6 70 -4.1 24.7 1.355 0.053
11:39 1003 29.62 832 24.57 0.8 33.5 68 -4.5 23.9 1.292 0.051
11:40 1003 29.62 832 24.57 1 33.7 66 -4.6 23.6 1.411 0.056
11:41 1003 29.62 832 24.57 1.3 34.3 64 -4.7 23.5 1.632 0.064
11:42 1003 29.62 832 24.57 1.5 34.7 63 -4.7 23.5 1.841 0.072
11:43 1003 29.62 832 24.57 1.6 35 65 -4.2 24.4 2.062 0.081
11:44 1003 29.62 832 24.57 1.7 35.1 65 -4.2 24.5 2.181 0.086
11:45 1003 29.62 832 24.57 1.6 34.9 62 -5 23 2.107 0.083
11:46 1003 29.62 832 24.57 1.6 34.8 64 -4.4 24 2.079 0.082
11:47 1003 29.62 832 24.57 1.4 34.5 66 -4.4 24.1 1.858 0.073
11:48 1003 29.62 832 24.57 1.2 34.2 67 -4.3 24.3 1.699 0.067
11:49 1003 29.62 832 24.57 1.1 33.9 69 -3.9 24.9 1.563 0.062
11:50 1003 29.62 832 24.57 0.8 33.5 70 -3.9 24.9 1.319 0.052
11:51 1003 29.62 832 24.57 0.6 33.1 72 -3.8 25.1 1.082 0.043
11:52 1003 29.62 832 24.57 0.5 32.9 72 -4 24.8 0.912 0.036
11:53 1003 29.62 832 24.57 0.5 32.8 73 -3.9 25 0.922 0.036
11:54 1003 29.62 832 24.57 0.4 32.7 73 -3.9 25.1 0.848 0.033
11:55 1003 29.62 832 24.57 0.3 32.6 72 -4.1 24.7 0.808 0.032
11:56 1003 29.62 832 24.57 0.3 32.6 72 -4.2 24.5 0.767 0.03
11:57 1003 29.62 832 24.57 0.4 32.7 72 -4.1 24.7 0.841 0.033
11:58 1003 29.62 832 24.57 0.4 32.7 73 -3.9 24.9 0.88 0.035
11:59 1003 29.62 832 24.57 0.5 32.8 72 -4.1 24.7 0.902 0.036
12:00 1003 29.62 832 24.57 0.5 33 71 -4.2 24.5 1.015 0.04
12:01 1003 29.62 832 24.57 0.7 33.2 70 -4.1 24.6 1.14 0.045
12:02 1003 29.62 832 24.57 0.8 33.5 71 -3.8 25.2 1.303 0.051
12:03 1003 29.62 832 24.57 0.9 33.7 71 -3.7 25.3 1.411 0.056
12:04 1003 29.62 832 24.57 1 33.8 72 -3.5 25.6 1.439 0.057
12:05 1003 29.62 832 24.57 1 33.8 73 -3.3 26.1 1.569 0.062
12:06 1003 29.62 832 24.57 1.2 34.2 73 -3.1 26.5 1.773 0.07
12:07 1003 29.62 832 24.57 1.5 34.6 72 -3 26.6 1.988 0.078
12:08 1003 29.62 832 24.57 1.6 34.9 71 -3 26.5 2.163 0.085
12:09 1003 29.62 832 24.57 1.8 35.2 71 -3 26.7 2.31 0.091
12:10 1003 29.62 832 24.57 1.9 35.5 69 -3.2 26.2 2.48 0.098
12:11 1003 29.62 832 24.57 2 35.6 65 -3.8 25.1 2.506 0.099
12:12 1003 29.62 832 24.57 2.1 35.7 65 -3.9 25 2.484 0.098
12:13 1003 29.62 832 24.57 2.1 35.8 66 -3.7 25.4 2.551 0.1
12:14 1003 29.62 832 24.57 2.1 35.8 67 -3.4 25.9 2.601 0.102
12:15 1003 29.62 832 24.57 2.2 35.9 67 -3.2 26.2 2.658 0.105
12:16 1003 29.62 832 24.57 2.2 36 68 -3.1 26.4 2.692 0.106
12:17 1003 29.62 832 24.57 2.2 36 68 -3 26.6 2.645 0.104
12:18 1003 29.62 832 24.57 2.1 35.8 68 -3.2 26.3 2.645 0.104
12:19 1003 29.62 832 24.57 2.1 35.7 67 -3.4 25.9 2.566 0.101
12:20 1003 29.62 832 24.57 2.1 35.8 66 -3.6 25.5 2.599 0.102
12:21 1003 29.62 832 24.57 2.2 35.9 67 -3.3 26 2.633 0.104
12:22 1003 29.62 832 24.57 2.3 36.1 68 -3.1 26.5 2.848 0.112
12:23 1003 29.62 832 24.57 2.5 36.5 64 -3.7 25.4 3.085 0.121
12:24 1003 29.62 832 24.57 2.8 37 63 -3.6 25.5 3.357 0.132
12:25 1003 29.62 832 24.57 3.1 37.6 66 -2.6 27.3 3.753 0.148
12:26 1003 29.62 832 24.57 3.2 37.7 66 -2.5 27.6 3.9 0.154
12:27 1003 29.62 832 24.57 3.1 37.6 66 -2.6 27.3 3.883 0.153
12:28 1003 29.62 832 24.57 3 37.4 65 -3 26.7 3.792 0.149
12:29 1003 29.62 832 24.57 2.9 37.2 66 -2.7 27.1 3.695 0.145
12:30 1003 29.62 832 24.57 3 37.4 67 -2.6 27.3 3.769 0.148
12:31 1003 29.62 832 24.57 3 37.4 66 -2.7 27.1 3.888 0.153
12:32 1003 29.62 832 24.57 3 37.3 66 -2.8 27 3.825 0.151
12:33 1003 29.62 832 24.57 3 37.4 66 -2.7 27.2 3.82 0.15
12:34 1003 29.62 832 24.57 2.9 37.2 67 -2.7 27.2 3.745 0.147
12:35 1003 29.62 832 24.57 2.7 36.8 67 -2.8 27 3.506 0.138
12:36 1003 29.62 832 24.57 2.5 36.5 68 -2.7 27.1 3.24 0.128
12:37 1003 29.62 832 24.57 2.2 36 69 -2.9 26.7 3.008 0.118
12:38 1003 29.62 832 24.57 2.1 35.8 68 -3.2 26.3 2.776 0.109
12:39 1003 29.62 832 24.57 2 35.7 67 -3.4 25.9 2.674 0.105
12:40 1003 29.62 832 24.57 2.2 36 63 -4.2 24.5 2.764 0.109
12:41 1003 29.62 832 24.57 2.6 36.6 60 -4.5 23.9 3.097 0.122
12:42 1003 29.62 832 24.57 2.9 37.2 57 -4.7 23.6 3.448 0.136
12:43 1003 29.62 832 24.57 3.1 37.5 57 -4.7 23.5 3.651 0.144
12:44 1003 29.62 832 24.57 3.1 37.7 58 -4.3 24.3 3.742 0.147
12:45 1003 29.62 832 24.57 2.9 37.2 62 -3.7 25.3 3.549 0.14
12:46 1003 29.62 832 24.57 2.4 36.4 61 -4.4 24.1 2.994 0.118
12:47 1003 29.62 832 24.57 2.2 36 60 -4.8 23.3 2.671 0.105
12:48 1003 29.62 832 24.57 2.1 35.8 62 -4.5 23.9 2.575 0.101
12:49 1003 29.62 832 24.57 2.2 35.9 59 -4.9 23.1 2.567 0.101
12:50 1003 29.62 832 24.57 2.3 36.2 59 -4.9 23.1 2.708 0.107
12:51 1003 29.62 832 24.57 2.5 36.4 58 -4.9 23.1 2.906 0.114
12:52 1003 29.62 832 24.57 2.6 36.8 57 -4.9 23.1 3.046 0.12
12:53 1003 29.62 832 24.57 2.8 37 57 -4.9 23.2 3.21 0.126
12:54 1003 29.62 832 24.57 2.9 37.3 57 -4.8 23.3 3.357 0.132
12:55 1003 29.62 832 24.57 3.1 37.5 56 -4.9 23.1 3.48 0.137
12:56 1003 29.62 832 24.57 3.1 37.6 57 -4.5 23.9 3.48 0.137
12:57 1003 29.62 832 24.57 2.6 36.7 60 -4.4 24 3.073 0.121
12:58 1003 29.62 832 24.57 2 35.6 62 -4.6 23.7 2.642 0.104
12:59 1003 29.62 832 24.57 1.4 34.4 65 -4.4 24 1.957 0.077
13:00 1003 29.62 832 24.57 1.1 33.9 66 -4.7 23.6 1.589 0.063
13:01 1003 29.62 832 24.57 1.2 34.2 64 -4.9 23.1 1.65 0.065
13:02 1003 29.62 832 24.57 1.4 34.6 62 -5.1 22.9 1.854 0.073
13:03 1003 29.62 832 24.57 1.6 34.9 61 -5.1 22.8 2.075 0.082
13:04 1003 29.62 832 24.57 1.8 35.2 60 -5.1 22.8 2.233 0.088
13:05 1003 29.62 832 24.57 2 35.5 59 -5.1 22.8 2.385 0.094
13:06 1003 29.62 832 24.57 2.1 35.8 59 -5.2 22.7 2.544 0.1
13:07 1003 29.62 832 24.57 2.3 36.1 58 -5.2 22.7 2.679 0.105
13:08 1003 29.62 832 24.57 2.3 36.2 58 -5.2 22.7 2.809 0.111
13:09 1003 29.62 832 24.57 2.5 36.4 57 -5.1 22.7 2.894 0.114
13:10 1003 29.62 832 24.57 2.5 36.5 57 -5.2 22.7 3.007 0.118
13:11 1003 29.62 832 24.57 2.6 36.8 56 -5.2 22.6 3.154 0.124
13:12 1003 29.62 832 24.57 2.7 36.8 56 -5.2 22.6 3.267 0.129
13:13 1003 29.62 832 24.57 2.6 36.7 57 -5.1 22.7 3.278 0.129
13:14 1003 29.62 832 24.57 2.3 36.1 58 -5.1 22.7 3.074 0.121
13:15 1003 29.62 832 24.57 2.2 35.9 58 -5.2 22.6 2.927 0.115
13:16 1003 29.62 832 24.57 2.1 35.8 59 -5.2 22.7 2.797 0.11
13:17 1003 29.62 832 24.57 2 35.6 60 -5 23 2.655 0.105
13:18 1003 29.62 832 24.57 1.8 35.3 60 -5.1 22.9 2.485 0.098
13:19 1003 29.62 832 24.57 1.8 35.3 60 -5.1 22.8 2.446 0.096
13:20 1003 29.62 832 24.57 1.9 35.5 60 -5.1 22.8 2.497 0.098
13:21 1003 29.62 832 24.57 2.1 35.8 59 -5.1 22.8 2.61 0.103
13:22 1003 29.62 832 24.57 2.3 36.1 58 -5.1 22.8 2.802 0.11
13:23 1003 29.62 832 24.57 2.5 36.5 57 -5.1 22.8 2.966 0.117
13:24 1003 29.62 832 24.57 2.6 36.7 57 -5.1 22.7 3.125 0.123
13:25 1003 29.62 832 24.57 2.8 37 56 -5.1 22.9 3.317 0.131
13:26 1003 29.62 832 24.57 2.9 37.1 56 -5 23 3.458 0.136
13:27 1003 29.62 832 24.57 2.9 37.3 56 -4.9 23.2 3.651 0.144
13:28 1003 29.62 832 24.57 3 37.5 57 -4.8 23.4 3.826 0.151
13:29 1003 29.62 832 24.57 3.1 37.7 56 -4.7 23.5 3.973 0.156
13:30 1003 29.62 832 24.57 3 37.4 58 -4.5 24 3.769 0.148
13:31 1003 29.62 832 24.57 2.4 36.3 61 -4.3 24.3 3.187 0.125
13:32 1003 29.62 832 24.57 2 35.6 65 -3.9 24.9 2.677 0.105
13:33 1003 29.62 832 24.57 1.8 35.2 66 -3.9 25.1 2.401 0.095
13:34 1003 29.62 832 24.57 1.7 35 63 -4.5 23.9 2.271 0.089
13:35 1003 29.62 832 24.57 1.8 35.2 64 -4.4 24.1 2.282 0.09
13:36 1003 29.62 832 24.57 1.8 35.3 65 -4.1 24.7 2.351 0.093
13:37 1003 29.62 832 24.57 1.8 35.2 62 -4.7 23.5 2.34 0.092
13:38 1003 29.62 832 24.57 2 35.6 60 -4.9 23.2 2.47 0.097
13:39 1003 29.62 832 24.57 2.1 35.8 61 -4.7 23.5 2.584 0.102
13:40 1003 29.62 832 24.57 2.2 36 61 -4.5 23.9 2.647 0.104
13:41 1003 29.62 832 24.57 2.2 36 62 -4.3 24.3 2.624 0.103
13:42 1003 29.62 832 24.57 2.2 36 62 -4.3 24.3 2.625 0.103
13:43 1003 29.62 832 24.57 2.2 36 61 -4.7 23.6 2.619 0.103
13:44 1003 29.62 832 24.57 2.3 36.1 60 -4.8 23.4 2.647 0.104
13:45 1003 29.62 832 24.57 2.4 36.3 60 -4.7 23.6 2.777 0.109
13:46 1003 29.62 832 24.57 2.5 36.4 60 -4.5 23.9 2.907 0.114
13:47 1003 29.62 832 24.57 2.5 36.6 62 -4.1 24.6 3.037 0.12
13:48 1003 29.62 832 24.57 2.5 36.6 66 -3.1 26.4 3.1 0.122
13:49 1003 29.62 832 24.57 2.5 36.6 66 -3.1 26.4 3.117 0.123
13:50 1003 29.62 832 24.57 2.5 36.5 65 -3.3 26 3.083 0.121
13:51 1003 29.62 832 24.57 2.6 36.7 67 -2.8 26.9 3.076 0.121
13:52 1003 29.62 832 24.57 2.7 36.8 69 -2.5 27.5 3.009 0.118
13:53 1003 29.62 832 24.57 2.6 36.7 70 -2.4 27.8 2.821 0.111
13:54 1003 29.62 832 24.57 2.6 36.6 69 -2.5 27.5 2.861 0.113
13:55 1003 29.62 832 24.57 2.5 36.6 69 -2.6 27.3 2.997 0.118
13:56 1003 29.62 832 24.57 2.6 36.7 66 -3.1 26.5 3.037 0.12
13:57 1003 29.62 832 24.57 2.6 36.7 66 -3.1 26.3 3.128 0.123
13:58 1002 29.59 832 24.57 2.6 36.6 65 -3.4 25.9 3.116 0.123
13:59 1003 29.62 832 24.57 2.5 36.5 65 -3.4 25.9 3.015 0.119
14:00 1003 29.62 832 24.57 2.5 36.4 66 -3.3 26.1 3.021 0.119
14:01 1003 29.62 832 24.57 2.4 36.3 66 -3.4 26 2.97 0.117
14:02 1003 29.62 832 24.57 2.3 36.2 67 -3.2 26.2 2.936 0.116
14:03 1003 29.62 832 24.57 2.2 36 66 -3.4 25.8 2.852 0.112
14:04 1003 29.62 832 24.57 2.1 35.7 67 -3.4 25.9 2.693 0.106
14:05 1003 29.62 832 24.57 1.9 35.4 69 -3.1 26.3 2.517 0.099
14:06 1002 29.59 832 24.57 1.7 35 71 -3.1 26.5 2.273 0.089
14:07 1002 29.59 832 24.57 1.4 34.6 71 -3.4 26 2.047 0.081
14:08 1002 29.59 832 24.57 1.3 34.4 70 -3.6 25.6 1.866 0.073
14:09 1002 29.59 832 24.57 1.3 34.3 70 -3.6 25.6 1.787 0.07
14:10 1002 29.59 832 24.57 1.2 34.2 70 -3.6 25.5 1.776 0.07
14:11 1002 29.59 832 24.57 1.2 34.1 72 -3.4 25.8 1.707 0.067
14:12 1002 29.59 832 24.57 0.9 33.7 73 -3.4 25.8 1.498 0.059
14:13 1002 29.59 832 24.57 0.9 33.6 72 -3.6 25.5 1.396 0.055
14:14 1002 29.59 832 24.57 0.9 33.6 71 -3.8 25.2 1.384 0.054
14:15 1002 29.59 832 24.57 1 33.8 71 -3.7 25.3 1.486 0.059
14:16 1002 29.59 832 24.57 1.1 34 70 -3.8 25.2 1.548 0.061
14:17 1002 29.59 832 24.57 1.1 34 71 -3.6 25.4 1.598 0.063
14:18 1002 29.59 832 24.57 1.1 34 71 -3.6 25.5 1.627 0.064
14:19 1002 29.59 832 24.57 1 33.8 71 -3.8 25.2 1.53 0.06
14:20 1002 29.59 832 24.57 0.9 33.6 70 -3.9 24.9 1.394 0.055
14:21 1002 29.59 832 24.57 0.7 33.2 71 -4 24.9 1.179 0.046
14:22 1003 29.62 832 24.57 0.4 32.7 73 -3.8 25.1 0.93 0.037
14:23 1003 29.62 832 24.57 0.3 32.6 74 -3.8 25.2 0.789 0.031
14:24 1003 29.62 832 24.57 0.4 32.8 74 -3.7 25.3 0.852 0.034
14:25 1003 29.62 832 24.57 0.6 33 74 -3.5 25.6 1.016 0.04
14:26 1003 29.62 832 24.57 0.5 32.9 75 -3.4 25.8 1.034 0.041
14:27 1003 29.62 832 24.57 0.4 32.8 76 -3.3 26 0.92 0.036
14:28 1002 29.59 832 24.57 0.4 32.7 75 -3.6 25.6 0.841 0.033
14:29 1003 29.62 832 24.57 0.6 33.2 73 -3.7 25.3 1.074 0.042
14:30 1002 29.59 832 24.57 0.9 33.7 71 -3.7 25.4 1.363 0.054
14:31 1002 29.59 832 24.57 1.1 33.9 71 -3.6 25.5 1.516 0.06
14:32 1003 29.62 832 24.57 1.1 34 69 -3.9 25.1 1.567 0.062
14:33 1002 29.59 832 24.57 1.2 34.2 69 -3.8 25.1 1.64 0.065
14:34 1002 29.59 832 24.57 1.2 34.2 69 -3.9 25 1.697 0.067
14:35 1002 29.59 832 24.57 1.2 34.2 70 -3.7 25.4 1.697 0.067
14:36 1003 29.62 832 24.57 1.2 34.2 71 -3.5 25.7 1.72 0.068
14:37 1003 29.62 832 24.57 1.2 34.1 72 -3.4 25.9 1.715 0.068
14:38 1003 29.62 832 24.57 1.1 33.9 72 -3.5 25.8 1.641 0.065
14:39 1003 29.62 832 24.57 1 33.7 72 -3.6 25.5 1.545 0.061
14:40 1003 29.62 832 24.57 0.8 33.5 72 -3.7 25.4 1.421 0.056
14:41 1003 29.62 832 24.57 0.8 33.4 72 -3.7 25.3 1.313 0.052
14:42 1003 29.62 832 24.57 0.7 33.2 72 -3.7 25.3 1.166 0.046
14:43 1003 29.62 832 24.57 0.6 33.1 72 -3.8 25.2 1.127 0.044
14:44 1003 29.62 832 24.57 0.7 33.3 73 -3.7 25.4 1.195 0.047
14:45 1003 29.62 832 24.57 0.9 33.7 72 -3.6 25.5 1.381 0.054
14:46 1003 29.62 832 24.57 1.1 34 70 -3.7 25.3 1.534 0.06
14:47 1003 29.62 832 24.57 1.3 34.4 70 -3.6 25.5 1.71 0.067
14:48 1003 29.62 832 24.57 1.3 34.4 70 -3.5 25.8 1.749 0.069
14:49 1003 29.62 832 24.57 1.2 34.1 73 -3.2 26.2 1.648 0.065
14:50 1003 29.62 832 24.57 0.9 33.7 74 -3.1 26.4 1.421 0.056
14:51 1003 29.62 832 24.57 0.7 33.3 76 -3.1 26.5 1.251 0.049
14:52 1003 29.62 832 24.57 0.7 33.2 75 -3.2 26.3 1.15 0.045
14:53 1003 29.62 832 24.57 0.8 33.4 75 -3.2 26.2 1.178 0.046
14:54 1003 29.62 832 24.57 0.9 33.5 74 -3.3 26.1 1.28 0.05
14:55 1003 29.62 832 24.57 1 33.8 73 -3.4 26 1.455 0.057
14:56 1003 29.62 832 24.57 1.2 34.2 71 -3.5 25.8 1.603 0.063
14:57 1003 29.62 832 24.57 1.4 34.5 70 -3.5 25.7 1.812 0.071
14:58 1003 29.62 832 24.57 1.6 34.9 69 -3.5 25.7 2.006 0.079
14:59 1003 29.62 832 24.57 1.8 35.2 67 -3.6 25.4 2.187 0.086
15:00 1003 29.62 832 24.57 1.9 35.5 67 -3.6 25.5 2.38 0.094
15:01 1003 29.62 832 24.57 2.3 36.1 65 -3.6 25.5 2.686 0.106
15:02 1003 29.62 832 24.57 2.5 36.6 64 -3.6 25.6 2.868 0.113
15:03 1003 29.62 832 24.57 2.9 37.2 63 -3.5 25.7 3.111 0.122
15:04 1003 29.62 832 24.57 3.2 37.7 62 -3.4 25.8 3.389 0.133
15:05 1003 29.62 832 24.57 3.5 38.2 61 -3.3 26 3.706 0.146
15:06 1003 29.62 832 24.57 3.9 39 59 -3.5 25.8 4.165 0.164
15:07 1003 29.62 832 24.57 4 39.2 58 -3.4 25.8 4.487 0.177
15:08 1003 29.62 832 24.57 3.5 38.3 60 -3.5 25.7 4.181 0.165
15:09 1003 29.62 832 24.57 3.2 37.8 62 -3.5 25.8 3.825 0.151
15:10 1003 29.62 832 24.57 3 37.4 62 -3.5 25.8 3.576 0.141
15:11 1003 29.62 832 24.57 2.9 37.3 63 -3.5 25.7 3.463 0.136
15:12 1003 29.62 832 24.57 2.8 37.1 65 -3 26.5 3.282 0.129
15:13 1003 29.62 832 24.57 2.5 36.5 68 -2.9 26.9 3.015 0.119
15:14 1003 29.62 832 24.57 2.3 36.1 67 -3.3 26.1 2.828 0.111
15:15 1003 29.62 832 24.57 2.3 36.1 67 -3.2 26.2 2.829 0.111
15:16 1003 29.62 832 24.57 2.2 36 69 -3 26.7 2.795 0.11
15:17 1003 29.62 832 24.57 2.1 35.8 68 -3.2 26.2 2.71 0.107
15:18 1003 29.62 832 24.57 2.1 35.9 68 -3.1 26.5 2.728 0.107
15:19 1003 29.62 832 24.57 2.1 35.7 69 -3.1 26.4 2.728 0.107
15:20 1003 29.62 832 24.57 2 35.7 68 -3.2 26.2 2.649 0.104
15:21 1003 29.62 832 24.57 2.1 35.7 68 -3.3 26.1 2.626 0.103
15:22 1003 29.62 832 24.57 2.2 36 67 -3.3 26.1 2.773 0.109
15:23 1003 29.62 832 24.57 2.3 36.1 68 -3.1 26.5 2.829 0.111
15:24 1003 29.62 832 24.57 2.1 35.8 68 -3.2 26.2 2.687 0.106
15:25 1003 29.62 832 24.57 2.2 36 67 -3.3 26.1 2.732 0.108
15:26 1003 29.62 832 24.57 2.2 36 68 -3.1 26.3 2.704 0.106
15:27 1003 29.62 832 24.57 2 35.7 71 -2.8 27 2.539 0.1
15:28 1003 29.62 832 24.57 1.7 35.1 72 -2.8 27 2.267 0.089
15:29 1003 29.62 832 24.57 1.5 34.8 72 -2.9 26.8 2.075 0.082
15:30 1003 29.62 832 24.57 1.6 34.8 72 -3 26.6 2.063 0.081
15:31 1003 29.62 832 24.57 1.6 34.8 73 -2.8 26.9 2.08 0.082
15:32 1003 29.62 832 24.57 1.6 34.8 72 -3 26.6 2.052 0.081
15:33 1003 29.62 832 24.57 1.6 34.9 70 -3.2 26.2 2.074 0.082
15:34 1003 29.62 832 24.57 1.8 35.3 68 -3.4 25.9 2.244 0.088
15:35 1003 29.62 832 24.57 2.1 35.8 67 -3.4 25.9 2.448 0.096
15:36 1003 29.62 832 24.57 2.2 35.9 68 -3.1 26.5 2.572 0.101
15:37 1003 29.62 832 24.57 2.1 35.8 69 -2.9 26.7 2.549 0.1
15:38 1003 29.62 832 24.57 1.9 35.4 71 -2.8 26.9 2.442 0.096
15:39 1003 29.62 832 24.57 1.8 35.2 70 -3.1 26.5 2.238 0.088
15:40 1003 29.62 832 24.57 1.7 35 73 -2.7 27.1 2.153 0.085
15:41 1003 29.62 832 24.57 1.4 34.6 74 -2.6 27.2 1.881 0.074
15:42 1003 29.62 832 24.57 1.3 34.4 75 -2.7 27.2 1.728 0.068
15:43 1003 29.62 832 24.57 1.3 34.4 73 -3 26.5 1.774 0.07
15:44 1003 29.62 832 24.57 1.6 34.9 70 -3.3 26.1 1.989 0.078
15:45 1003 29.62 832 24.57 1.9 35.4 69 -3.2 26.3 2.232 0.088
15:46 1003 29.62 832 24.57 2 35.6 69 -3.1 26.4 2.356 0.093
15:47 1003 29.62 832 24.57 2.1 35.7 69 -3.1 26.4 2.453 0.097
15:48 1003 29.62 832 24.57 2.1 35.8 69 -2.9 26.7 2.526 0.099
15:49 1003 29.62 832 24.57 2.1 35.8 69 -3.1 26.5 2.475 0.097
15:50 1003 29.62 832 24.57 2.1 35.7 68 -3.2 26.3 2.498 0.098
15:51 1003 29.62 832 24.57 2.1 35.9 68 -3.2 26.3 2.56 0.101
15:52 1003 29.62 832 24.57 2.2 35.9 67 -3.2 26.2 2.634 0.104
15:53 1003 29.62 832 24.57 2.2 36 68 -3 26.6 2.684 0.106
15:54 1003 29.62 832 24.57 2.1 35.8 69 -2.9 26.7 2.571 0.101
15:55 1003 29.62 832 24.57 1.9 35.4 70 -3 26.6 2.401 0.095
15:56 1003 29.62 832 24.57 1.9 35.4 69 -3.2 26.2 2.299 0.091
15:57 1003 29.62 832 24.57 2 35.6 69 -3.1 26.4 2.396 0.094
15:58 1003 29.62 832 24.57 2 35.7 68 -3.2 26.2 2.435 0.096
15:59 1003 29.62 832 24.57 2.1 35.9 67 -3.4 26 2.52 0.099
16:00 1003 29.62 832 24.57 2.3 36.1 66 -3.3 26 2.684 0.106
16:01 1003 29.62 832 24.57 2.4 36.3 66 -3.3 26.1 2.764 0.109
16:02 1003 29.62 832 24.57 2.4 36.3 66 -3.4 26 2.848 0.112
16:03 1003 29.62 832 24.57 2.4 36.4 66 -3.3 26.1 2.888 0.114
16:04 1003 29.62 832 24.57 2.4 36.4 66 -3.3 26.1 2.928 0.115
16:05 1003 29.62 832 24.57 2.4 36.3 66 -3.3 26.1 2.888 0.114
16:06 1003 29.62 832 24.57 2.2 36 68 -3.1 26.4 2.707 0.107
16:07 1003 29.62 832 24.57 2 35.7 69 -3.2 26.3 2.543 0.1
16:08 1003 29.62 832 24.57 1.9 35.5 69 -3.2 26.3 2.35 0.093
16:09 1003 29.62 832 24.57 1.9 35.5 69 -3.2 26.2 2.322 0.091
16:10 1003 29.62 832 24.57 2 35.5 68 -3.3 26 2.339 0.092
16:11 1003 29.62 832 24.57 2.1 35.7 67 -3.3 26 2.464 0.097
16:12 1003 29.62 832 24.57 2.1 35.8 68 -3.2 26.2 2.499 0.098
16:13 1003 29.62 832 24.57 2 35.6 69 -3.1 26.4 2.471 0.097
16:14 1003 29.62 832 24.57 1.7 35 71 -3 26.6 2.194 0.086
16:15 1003 29.62 832 24.57 1.4 34.5 73 -3 26.6 1.9 0.075
16:16 1003 29.62 832 24.57 1.2 34.2 73 -3 26.6 1.758 0.069
16:17 1003 29.62 832 24.57 1.1 34 74 -3 26.5 1.684 0.066
16:18 1003 29.62 832 24.57 1 33.9 74 -3 26.5 1.565 0.062
16:19 1003 29.62 832 24.57 1.1 34 73 -3.2 26.2 1.582 0.062
16:20 1003 29.62 832 24.57 1.3 34.4 72 -3.1 26.4 1.725 0.068
16:21 1003 29.62 832 24.57 1.4 34.6 71 -3.3 26.1 1.81 0.071
16:22 1003 29.62 832 24.57 1.6 34.8 71 -3.2 26.2 1.923 0.076
16:23 1003 29.62 832 24.57 1.6 34.9 71 -3.2 26.3 2.02 0.08
16:24 1003 29.62 832 24.57 1.6 34.8 71 -3.2 26.2 1.986 0.078
16:25 1003 29.62 832 24.57 1.5 34.7 71 -3.2 26.2 1.958 0.077
16:26 1003 29.62 832 24.57 1.4 34.6 72 -3.2 26.3 1.828 0.072
16:27 1003 29.62 832 24.57 1.3 34.3 72 -3.2 26.3 1.67 0.066
16:28 1003 29.62 832 24.57 1.1 34 73 -3.2 26.3 1.511 0.059
16:29 1003 29.62 832 24.57 1 33.8 73 -3.3 26.1 1.455 0.057
16:30 1003 29.62 832 24.57 1.2 34.1 72 -3.3 26.1 1.574 0.062
16:31 1003 29.62 832 24.57 1.4 34.4 71 -3.3 26 1.71 0.067
16:32 1003 29.62 832 24.57 1.4 34.6 70 -3.4 25.9 1.784 0.07
16:33 1003 29.62 832 24.57 1.5 34.8 70 -3.4 25.9 1.857 0.073
16:34 1003 29.62 832 24.57 1.6 35 69 -3.4 25.9 1.982 0.078
16:35 1003 29.62 832 24.57 1.7 35.1 69 -3.3 26 2.067 0.081
16:36 1003 29.62 832 24.57 1.6 34.9 70 -3.3 26 1.988 0.078
16:37 1003 29.62 832 24.57 1.4 34.6 71 -3.3 26.1 1.818 0.072
16:38 1003 29.62 832 24.57 1.2 34.1 73 -3.2 26.2 1.501 0.059
16:39 1003 29.62 832 24.57 1.1 33.9 73 -3.3 26.1 1.434 0.056
16:40 1003 29.62 832 24.57 1 33.9 73 -3.3 26 1.366 0.054
16:41 1003 29.62 832 24.57 1 33.8 73 -3.4 25.9 1.366 0.054
16:42 1003 29.62 832 24.57 1 33.8 73 -3.4 25.9 1.332 0.052
16:43 1003 29.62 832 24.57 0.9 33.6 73 -3.5 25.8 1.275 0.05
16:44 1003 29.62 832 24.57 1 33.8 71 -3.6 25.6 1.343 0.053
16:45 1003 29.62 832 24.57 1.3 34.3 69 -3.9 25 1.474 0.058
16:46 1003 29.62 832 24.57 1.6 34.9 67 -3.9 24.9 1.791 0.071
16:47 1003 29.62 832 24.57 1.4 34.6 68 -3.8 25.1 1.649 0.065
16:48 1003 29.62 832 24.57 1.1 34 70 -3.7 25.3 1.434 0.056
16:49 1003 29.62 832 24.57 1.2 34.1 69 -3.8 25.2 1.485 0.058
16:50 1003 29.62 832 24.57 1.5 34.8 67 -4 24.8 1.796 0.071
16:51 1003 29.62 832 24.57 1.8 35.2 65 -4 24.8 2 0.079
16:52 1003 29.62 832 24.57 2 35.6 64 -4.2 24.4 2.249 0.089
16:53 1003 29.62 833 24.6 2.2 36 64 -4 24.9 2.482 0.098
16:54 1003 29.62 833 24.6 2.2 35.9 64 -3.9 24.9 2.453 0.097
16:55 1003 29.62 832 24.57 2.1 35.9 63 -4.1 24.6 2.465 0.097
16:56 1003 29.62 832 24.57 2.3 36.1 62 -4.2 24.5 2.567 0.101
16:57 1003 29.62 832 24.57 2.4 36.3 62 -4.1 24.7 2.663 0.105
16:58 1003 29.62 832 24.57 2.3 36.2 64 -3.9 25 2.651 0.104
16:59 1003 29.62 832 24.57 1.9 35.4 64 -4.1 24.6 2.323 0.091
17:00 1003 29.62 832 24.57 1.4 34.6 66 -4.1 24.6 1.848 0.073
17:01 1003 29.62 832 24.57 1.2 34.1 68 -4 24.7 1.593 0.063
17:02 1003 29.62 832 24.57 1.2 34.1 68 -4 24.7 1.519 0.06
17:03 1003 29.62 832 24.57 1.3 34.3 68 -3.9 25 1.672 0.066
17:04 1003 29.62 832 24.57 1.5 34.7 67 -4 24.7 1.859 0.073
17:05 1003 29.62 832 24.57 1.6 34.9 65 -4.2 24.4 1.972 0.078
17:06 1003 29.62 832 24.57 1.2 34.1 68 -4.2 24.5 1.695 0.067
17:07 1003 29.62 832 24.57 0.6 33 69 -4.5 24 1.089 0.043
17:08 1003 29.62 832 24.57 -0 32 73 -4.3 24.3 0.483 0.019
17:09 1003 29.62 832 24.57 -0.3 31.5 75 -4.1 24.5 0.183 0.007
17:10 1003 29.62 832 24.57 -0.1 31.8 74 -4.1 24.6 0.246 0.01
17:11 1003 29.62 832 24.57 0.1 32.2 74 -4 24.8 0.483 0.019
17:12 1003 29.62 832 24.57 0.6 33.1 69 -4.5 24 0.914 0.036
17:13 1003 29.62 832 24.57 0.5 32.9 70 -4.3 24.2 0.817 0.032
17:14 1003 29.62 832 24.57 0.5 32.8 70 -4.3 24.2 0.817 0.032
17:15 1003 29.62 832 24.57 0.9 33.7 68 -4.3 24.2 1.185 0.047
17:16 1003 29.62 832 24.57 1.3 34.3 65 -4.5 23.9 1.497 0.059
17:17 1003 29.62 832 24.57 1.6 34.9 64 -4.5 23.8 1.859 0.073
17:18 1003 29.62 832 24.57 1.5 34.8 63 -4.7 23.6 1.865 0.073
17:19 1003 29.62 832 24.57 1.3 34.4 63 -5 22.9 1.735 0.068
17:20 1003 29.62 832 24.57 0.9 33.7 66 -4.8 23.3 1.367 0.054
17:21 1003 29.62 832 24.57 0.6 33.2 67 -4.8 23.3 1.095 0.043
17:22 1003 29.62 832 24.57 0.5 32.8 67 -5 23.1 0.897 0.035
17:23 1003 29.62 832 24.57 0.2 32.4 69 -4.8 23.4 0.597 0.024
17:24 1003 29.62 832 24.57 0 32 70 -4.8 23.3 0.399 0.016
17:25 1003 29.62 832 24.57 -0.2 31.6 71 -4.9 23.2 0.183 0.007
17:26 1003 29.62 832 24.57 -0.4 31.4 71 -5 23 0.048 0.002
17:27 1003 29.62 832 24.57 -0.6 30.9 71 -5.2 22.6 -0.156 -0.006
17:28 1003 29.62 832 24.57 -0.7 30.7 72 -5.1 22.8 -0.4 -0.016
17:29 1003 29.62 832 24.57 -0.8 30.6 70 -5.6 21.9 -0.445 -0.018
17:30 1003 29.62 832 24.57 -0.7 30.8 71 -5.2 22.6 -0.377 -0.015
17:31 1003 29.62 832 24.57 -0.5 31.1 70 -5.3 22.5 -0.173 -0.007
17:32 1003 29.62 832 24.57 -0.4 31.3 70 -5.1 22.8 -0.043 -0.002
17:33 1003 29.62 833 24.6 -0.3 31.5 69 -5.3 22.4 0.031 0.001
17:34 1003 29.62 833 24.6 -0.1 31.8 66 -5.7 21.8 0.207 0.008
17:35 1003 29.62 833 24.6 0.2 32.3 64 -5.9 21.4 0.423 0.017
17:36 1003 29.62 833 24.6 0.1 32.2 64 -5.9 21.4 0.429 0.017
17:37 1003 29.62 833 24.6 0.1 32.1 65 -5.8 21.5 0.344 0.014
17:38 1003 29.62 833 24.6 0.2 32.3 64 -5.8 21.6 0.463 0.018
17:39 1003 29.62 832 24.57 0.5 32.8 63 -5.7 21.7 0.758 0.03
17:40 1003 29.62 832 24.57 0.6 33.1 63 -5.7 21.7 0.928 0.037
17:41 1003 29.62 832 24.57 0.7 33.2 62 -5.8 21.5 0.985 0.039
17:42 1003 29.62 832 24.57 0.6 33 62 -5.9 21.4 0.923 0.036
17:43 1003 29.62 832 24.57 0.4 32.8 63 -5.8 21.5 0.799 0.031
17:44 1003 29.62 832 24.57 0.4 32.7 63 -5.8 21.5 0.714 0.028
17:45 1003 29.62 832 24.57 0.4 32.7 64 -5.6 21.9 0.714 0.028
17:46 1003 29.62 832 24.57 0.6 33.2 63 -5.6 22 0.947 0.037
17:47 1003 29.62 832 24.57 0.7 33.3 62 -5.7 21.7 1.043 0.041
17:48 1003 29.62 832 24.57 0.7 33.3 62 -5.8 21.6 1.083 0.043
17:49 1003 29.62 832 24.57 0.7 33.3 59 -6.5 20.3 1.077 0.042
17:50 1003 29.62 832 24.57 0.1 32.2 62 -6.4 20.5 0.528 0.021
17:51 1003 29.62 832 24.57 -0.3 31.5 65 -6.2 20.9 0.104 0.004
17:52 1003 29.62 832 24.57 -0.3 31.4 64 -6.3 20.6 0.019 0.001
17:53 1003 29.62 832 24.57 -0.5 31.1 64 -6.4 20.4 -0.128 -0.005
17:54 1003 29.62 832 24.57 -0.5 31 64 -6.6 20.1 -0.201 -0.008
17:55 1003 29.62 832 24.57 -0.6 30.9 64 -6.6 20.1 -0.268 -0.011
17:56 1003 29.62 832 24.57 -0.6 30.9 64 -6.5 20.2 -0.297 -0.012
17:57 1003 29.62 832 24.57 -0.6 30.9 64 -6.5 20.3 -0.312 -0.012
17:58 1003 29.62 832 24.57 -0.6 30.9 65 -6.5 20.4 -0.25 -0.01
17:59 1003 29.62 832 24.57 -0.6 31 64 -6.6 20.1 -0.176 -0.007
18:00 1003 29.62 832 24.57 -0.6 31 64 -6.6 20.2 -0.181 -0.007
18:01 1003 29.62 832 24.57 -0.7 30.8 64 -6.6 20.2 -0.272 -0.011
18:02 1003 29.62 832 24.57 -0.8 30.5 65 -6.5 20.2 -0.47 -0.019
18:03 1003 29.62 832 24.57 -0.9 30.3 65 -6.6 20.1 -0.542 -0.021
18:04 1003 29.62 832 24.57 -1.1 30.1 66 -6.7 20 -0.667 -0.026
18:05 1003 29.62 832 24.57 -1.1 30 66 -6.6 20.1 -0.763 -0.03
18:06 1003 29.62 832 24.57 -1.2 29.9 66 -6.7 19.9 -0.791 -0.031
18:07 1003 29.62 832 24.57 -1.2 29.8 66 -6.8 19.7 -0.831 -0.033
18:08 1003 29.62 832 24.57 -1.3 29.6 66 -6.8 19.8 -0.955 -0.038
18:09 1003 29.62 832 24.57 -1.4 29.5 67 -6.8 19.7 -1.011 -0.04
18:10 1003 29.62 832 24.57 -1.4 29.5 66 -6.9 19.5 -1.023 -0.04
18:11 1003 29.62 832 24.57 -1.6 29.2 66 -7 19.3 -1.107 -0.044
18:12 1003 29.62 832 24.57 -1.8 28.7 68 -7 19.4 -1.385 -0.055
18:13 1003 29.62 832 24.57 -1.9 28.6 68 -7.1 19.2 -1.481 -0.058
18:14 1003 29.62 832 24.57 -2 28.3 68 -7.2 19.1 -1.628 -0.064
18:15 1003 29.62 832 24.57 -2.2 28 69 -7.2 19 -1.82 -0.072
18:16 1003 29.62 832 24.57 -2.4 27.7 70 -7.2 19.1 -2.007 -0.079
18:17 1003 29.62 832 24.57 -2.4 27.7 69 -7.3 18.8 -2.047 -0.081
18:18 1003 29.62 833 24.6 -2.6 27.3 68 -7.7 18.1 -2.183 -0.086
18:19 1003 29.62 833 24.6 -2.8 26.9 72 -7.2 19 -2.488 -0.098
18:20 1003 29.62 833 24.6 -2.8 27 71 -7.4 18.6 -2.432 -0.096
18:21 1003 29.62 833 24.6 -2.6 27.3 71 -7.3 18.9 -2.318 -0.091
18:22 1003 29.62 833 24.6 -2.5 27.6 70 -7.2 19.1 -2.137 -0.084
18:23 1003 29.62 833 24.6 -2.3 28 69 -7.2 19 -1.944 -0.077
18:24 1003 29.62 833 24.6 -2 28.4 69 -7 19.4 -1.752 -0.069
18:25 1003 29.62 833 24.6 -1.7 28.9 70 -6.5 20.3 -1.491 -0.059
18:26 1003 29.62 833 24.6 -1.6 29.1 67 -7 19.5 -1.412 -0.056
18:27 1003 29.62 833 24.6 -1.7 28.9 73 -5.9 21.4 -1.367 -0.054
18:28 1003 29.62 833 24.6 -1.5 29.3 72 -6 21.3 -1.18 -0.046
18:29 1003 29.62 833 24.6 -1.4 29.4 71 -6 21.2 -1.151 -0.045
18:30 1003 29.62 833 24.6 -1.5 29.3 70 -6.3 20.6 -1.191 -0.047
18:31 1003 29.62 833 24.6 -1.8 28.8 71 -6.4 20.5 -1.434 -0.056
18:32 1003 29.62 833 24.6 -1.8 28.7 74 -5.9 21.5 -1.468 -0.058
18:33 1003 29.62 833 24.6 -1.8 28.7 72 -6.2 20.8 -1.349 -0.053
18:34 1003 29.62 833 24.6 -1.9 28.6 76 -5.6 21.9 -1.474 -0.058
18:35 1003 29.62 833 24.6 -1.7 28.9 74 -5.8 21.5 -1.242 -0.049
18:36 1003 29.62 833 24.6 -1.7 29 73 -5.8 21.5 -1.293 -0.051
18:37 1003 29.62 833 24.6 -1.6 29.1 73 -5.8 21.5 -1.293 -0.051
18:38 1003 29.62 833 24.6 -1.6 29.2 75 -5.4 22.3 -1.247 -0.049
18:39 1003 29.62 833 24.6 -1.3 29.7 74 -5.3 22.5 -0.981 -0.039
18:40 1003 29.62 833 24.6 -1.1 30 70 -5.9 21.3 -0.936 -0.037
18:41 1003 29.62 833 24.6 -1.2 29.8 74 -5.3 22.4 -1.009 -0.04
18:42 1003 29.62 833 24.6 -1.1 30.1 71 -5.6 21.9 -0.811 -0.032
18:43 1003 29.62 833 24.6 -1 30.2 68 -6.2 20.9 -0.749 -0.029
18:44 1003 29.62 833 24.6 -1.3 29.6 70 -6.2 20.9 -1.076 -0.042
18:45 1004 29.65 833 24.6 -1.5 29.4 74 -5.5 22 -1.155 -0.045
18:46 1004 29.65 833 24.6 -1 30.2 71 -5.5 22 -0.731 -0.029
18:47 1004 29.65 833 24.6 -0.5 31.1 69 -5.6 22 -0.242 -0.01
18:48 1004 29.65 833 24.6 -0.1 31.7 64 -6.1 21.1 0.131 0.005
18:49 1004 29.65 833 24.6 -0.5 31.1 67 -5.8 21.5 -0.129 -0.005
18:50 1004 29.65 833 24.6 -0.5 31 69 -5.6 22 -0.236 -0.009
18:51 1004 29.65 833 24.6 -0.3 31.4 68 -5.6 22 -0.072 -0.003
18:52 1004 29.65 833 24.6 -0.2 31.6 68 -5.4 22.2 0.081 0.003
18:53 1004 29.65 833 24.6 -0.1 31.8 68 -5.4 22.3 0.195 0.008
18:54 1004 29.65 833 24.6 -0 31.9 66 -5.6 22 0.331 0.013
18:55 1004 29.65 833 24.6 -0.3 31.5 63 -6.5 20.3 -0.093 -0.004
18:56 1004 29.65 833 24.6 -0.9 30.4 68 -6 21.1 -0.773 -0.03
18:57 1004 29.65 833 24.6 -1.3 29.7 70 -6 21.2 -0.988 -0.039
18:58 1004 29.65 833 24.6 -1.4 29.4 69 -6.3 20.6 -1.061 -0.042
18:59 1004 29.65 833 24.6 -1.6 29.2 70 -6.4 20.4 -1.152 -0.045
19:00 1004 29.65 833 24.6 -1.8 28.8 73 -6.1 21 -1.435 -0.056
19:01 1004 29.65 833 24.6 -2 28.5 74 -6 21.3 -1.503 -0.059
19:02 1004 29.65 833 24.6 -1.9 28.5 73 -6.2 20.8 -1.485 -0.058
19:03 1004 29.65 833 24.6 -2 28.4 74 -6 21.2 -1.587 -0.062
19:04 1004 29.65 833 24.6 -2 28.4 75 -5.8 21.5 -1.548 -0.061
19:05 1004 29.65 833 24.6 -2 28.4 75 -5.9 21.5 -1.491 -0.059
19:06 1004 29.65 833 24.6 -2 28.5 74 -6 21.2 -1.462 -0.058
19:07 1004 29.65 833 24.6 -2.1 28.3 73 -6.3 20.6 -1.626 -0.064
19:08 1004 29.65 833 24.6 -2.2 28 74 -6.2 20.9 -1.789 -0.07
19:09 1004 29.65 833 24.6 -2.3 27.9 75 -6.1 21 -1.818 -0.072
19:10 1004 29.65 833 24.6 -2.3 27.9 76 -6 21.2 -1.913 -0.075
19:11 1004 29.65 833 24.6 -2.3 27.9 77 -5.9 21.4 -1.873 -0.074
19:12 1004 29.65 833 24.6 -2.2 28 76 -5.9 21.4 -1.669 -0.066
19:13 1004 29.65 833 24.6 -2.1 28.2 75 -6 21.1 -1.595 -0.063
19:14 1004 29.65 833 24.6 -2 28.4 75 -5.9 21.4 -1.549 -0.061
19:15 1004 29.65 833 24.6 -1.9 28.5 75 -5.7 21.7 -1.498 -0.059
19:16 1004 29.65 833 24.6 -1.8 28.8 74 -5.8 21.6 -1.402 -0.055
19:17 1004 29.65 833 24.6 -1.7 29 74 -5.6 21.8 -1.328 -0.052
19:18 1004 29.65 833 24.6 -1.6 29.2 74 -5.6 21.9 -1.209 -0.048
19:19 1004 29.65 833 24.6 -1.4 29.4 74 -5.5 22.1 -1.112 -0.044
19:20 1004 29.65 833 24.6 -1.3 29.6 74 -5.4 22.2 -1.027 -0.04
19:21 1004 29.65 833 24.6 -1.3 29.7 73 -5.5 22.1 -0.998 -0.039
19:22 1004 29.65 833 24.6 -1.3 29.6 73 -5.6 22 -1.032 -0.041
19:23 1004 29.65 833 24.6 -1.4 29.5 73 -5.6 22 -1.111 -0.044
19:24 1004 29.65 833 24.6 -1.6 29.1 69 -6.5 20.3 -1.247 -0.049
19:25 1004 29.65 833 24.6 -2 28.4 71 -6.6 20.2 -1.587 -0.062
19:26 1004 29.65 833 24.6 -2.4 27.7 73 -6.6 20.2 -1.949 -0.077
19:27 1004 29.65 833 24.6 -2.5 27.6 78 -5.8 21.5 -2.08 -0.082
19:28 1004 29.65 833 24.6 -2.2 28.1 76 -5.9 21.4 -1.853 -0.073
19:29 1004 29.65 833 24.6 -2.1 28.3 76 -5.8 21.6 -1.694 -0.067
19:30 1004 29.65 833 24.6 -1.7 28.9 75 -5.7 21.8 -1.462 -0.058
19:31 1004 29.65 833 24.6 -1.4 29.4 73 -5.7 21.7 -1.133 -0.045
19:32 1004 29.65 833 24.6 -1.4 29.4 68 -6.7 20 -1.167 -0.046
19:33 1004 29.65 833 24.6 -1.7 28.9 74 -5.8 21.6 -1.382 -0.054
19:34 1004 29.65 833 24.6 -1.4 29.4 72 -5.8 21.5 -1.104 -0.043
19:35 1004 29.65 833 24.6 -1.2 29.9 71 -5.9 21.5 -0.832 -0.033
19:36 1004 29.65 833 24.6 -0.8 30.5 69 -5.9 21.4 -0.578 -0.023
19:37 1003 29.62 833 24.6 -0.6 31 67 -6 21.2 -0.249 -0.01
19:38 1003 29.62 833 24.6 -0.4 31.2 65 -6.2 20.9 -0.153 -0.006
19:39 1003 29.62 833 24.6 -0.5 31 66 -6.1 21.1 -0.22 -0.009
19:40 1003 29.62 833 24.6 -0.5 31 66 -6.1 21 -0.203 -0.008
19:41 1003 29.62 833 24.6 -0.7 30.7 67 -6.1 21.1 -0.362 -0.014
19:42 1003 29.62 833 24.6 -0.8 30.6 67 -6.2 20.9 -0.436 -0.017
19:43 1003 29.62 833 24.6 -0.8 30.5 67 -6.2 20.8 -0.492 -0.019
19:44 1003 29.62 833 24.6 -0.8 30.5 68 -6.1 21.1 -0.453 -0.018
19:45 1003 29.62 833 24.6 -0.7 30.7 63 -6.9 19.6 -0.413 -0.016
19:46 1003 29.62 833 24.6 -1.1 30.1 66 -6.6 20.2 -0.747 -0.029
19:47 1003 29.62 833 24.6 -1.5 29.3 69 -6.4 20.5 -1.081 -0.043
19:48 1003 29.62 833 24.6 -1.5 29.3 70 -6.2 20.8 -1.127 -0.044
19:49 1003 29.62 833 24.6 -1.3 29.7 68 -6.3 20.6 -0.889 -0.035
19:50 1003 29.62 833 24.6 -1.1 30.1 68 -6.3 20.7 -0.826 -0.033
19:51 1003 29.62 833 24.6 -1.1 30 67 -6.4 20.4 -0.815 -0.032
19:52 1003 29.62 833 24.6 -1.2 29.9 67 -6.4 20.4 -0.849 -0.033
19:53 1003 29.62 833 24.6 -1.2 29.8 67 -6.7 20 -0.973 -0.038
19:54 1003 29.62 833 24.6 -1.5 29.2 64 -7.5 18.5 -1.325 -0.052
19:55 1003 29.62 833 24.6 -2.1 28.3 69 -7.1 19.3 -1.863 -0.073
19:56 1003 29.62 833 24.6 -2.4 27.8 68 -7.5 18.6 -2.095 -0.082
19:57 1003 29.62 833 24.6 -2.6 27.3 71 -7.1 19.2 -2.316 -0.091
19:58 1003 29.62 833 24.6 -2.7 27.1 71 -7.2 19 -2.412 -0.095
19:59 1003 29.62 833 24.6 -2.8 26.9 68 -7.9 17.8 -2.582 -0.102
20:00 1003 29.62 833 24.6 -3.3 26.1 73 -7.5 18.5 -2.951 -0.116
20:01 1003 29.62 833 24.6 -3.4 25.8 76 -7.1 19.2 -3.007 -0.118
20:02 1003 29.62 833 24.6 -3.2 26.2 75 -7.1 19.2 -2.781 -0.109
20:03 1003 29.62 833 24.6 -3 26.7 71 -7.5 18.5 -2.633 -0.104
20:04 1003 29.62 833 24.6 -3.1 26.5 71 -7.5 18.5 -2.781 -0.109
20:05 1003 29.62 833 24.6 -3.1 26.3 74 -7.2 19 -2.803 -0.11
20:06 1003 29.62 833 24.6 -2.8 26.9 74 -6.8 19.7 -2.48 -0.098
20:07 1003 29.62 833 24.6 -2.3 27.9 71 -6.8 19.8 -1.902 -0.075
20:08 1003 29.62 833 24.6 -1.9 28.7 69 -6.8 19.8 -1.585 -0.062
20:09 1003 29.62 833 24.6 -1.7 29 68 -6.9 19.7 -1.421 -0.056
20:10 1003 29.62 833 24.6 -2 28.4 64 -7.9 17.8 -1.783 -0.07
20:11 1003 29.62 833 24.6 -2.6 27.4 65 -8.2 17.3 -2.39 -0.094
20:12 1003 29.62 833 24.6 -3.3 26.1 63 -9.3 15.2 -3.115 -0.123
20:13 1003 29.62 833 24.6 -4.2 24.5 70 -8.8 16.2 -4.027 -0.159
20:14 1003 29.62 833 24.6 -4.6 23.7 74 -8.5 16.6 -4.429 -0.174
20:15 1003 29.62 833 24.6 -4.8 23.3 73 -8.9 15.9 -4.605 -0.181
20:16 1003 29.62 832 24.57 -5 23.1 72 -9.3 15.2 -4.775 -0.188
20:17 1003 29.62 832 24.57 -5.3 22.5 74 -9.3 15.2 -5.165 -0.203
20:18 1003 29.62 833 24.6 -5.6 22 76 -9.2 15.4 -5.368 -0.211
20:19 1003 29.62 833 24.6 -5.6 21.9 73 -9.7 14.5 -5.538 -0.218
20:20 1003 29.62 832 24.57 -6 21.1 76 -9.6 14.7 -5.889 -0.232
20:21 1003 29.62 832 24.57 -6.1 21.1 80 -8.9 16 -5.815 -0.229
20:22 1003 29.62 833 24.6 -5.8 21.5 73 -9.8 14.3 -5.673 -0.223
20:23 1003 29.62 833 24.6 -6.1 21 78 -9.3 15.3 -5.962 -0.235
20:24 1003 29.62 833 24.6 -5.9 21.4 78 -9.1 15.7 -5.661 -0.223
20:25 1003 29.62 833 24.6 -5.4 22.3 79 -8.5 16.7 -5.174 -0.204
20:26 1003 29.62 833 24.6 -4.9 23.2 75 -8.6 16.5 -4.732 -0.186
20:27 1003 29.62 832 24.57 -4.5 23.9 76 -8.2 17.3 -4.289 -0.169
20:28 1003 29.62 832 24.57 -3.8 25.1 77 -7.4 18.7 -3.723 -0.147
20:29 1003 29.62 832 24.57 -3 26.6 71 -7.6 18.4 -2.947 -0.116
20:30 1003 29.62 832 24.57 -2.7 27.1 68 -7.9 17.8 -2.635 -0.104
20:31 1003 29.62 832 24.57 -2.5 27.5 69 -7.5 18.5 -2.385 -0.094
20:32 1003 29.62 832 24.57 -2.3 27.9 69 -7.3 18.9 -2.113 -0.083
20:33 1003 29.62 832 24.57 -2 28.3 67 -7.4 18.7 -1.779 -0.07
20:34 1003 29.62 832 24.57 -2 28.4 61 -8.6 16.6 -1.813 -0.071
20:35 1003 29.62 832 24.57 -3.1 26.5 61 -9.5 14.9 -2.815 -0.111
20:36 1003 29.62 833 24.6 -4.1 24.7 70 -8.7 16.4 -3.698 -0.146
20:37 1003 29.62 832 24.57 -4.4 24.1 74 -8.4 17 -4.021 -0.158
20:38 1003 29.62 832 24.57 -4.1 24.6 71 -8.7 16.4 -3.833 -0.151
20:39 1003 29.62 832 24.57 -3.9 24.9 70 -8.6 16.5 -3.674 -0.145
20:40 1003 29.62 832 24.57 -3.7 25.4 70 -8.3 17 -3.464 -0.136
20:41 1003 29.62 832 24.57 -3.9 25 64 -9.7 14.6 -3.622 -0.143
20:42 1003 29.62 832 24.57 -4.6 23.7 65 -10.2 13.6 -4.336 -0.171
20:43 1003 29.62 833 24.6 -5.3 22.5 68 -10.3 13.4 -5.033 -0.198
20:44 1003 29.62 832 24.57 -5.4 22.2 76 -9.1 15.7 -5.146 -0.203
20:45 1003 29.62 832 24.57 -5.1 22.9 77 -8.4 16.8 -4.788 -0.189
20:46 1003 29.62 832 24.57 -4.6 23.8 75 -8.4 16.9 -4.38 -0.172
20:47 1003 29.62 832 24.57 -4.2 24.5 75 -8 17.5 -3.989 -0.157
20:48 1003 29.62 832 24.57 -3.7 25.4 68 -8.7 16.4 -3.547 -0.14
20:49 1003 29.62 832 24.57 -3.5 25.8 67 -8.6 16.4 -3.371 -0.133
20:50 1003 29.62 832 24.57 -3.6 25.6 70 -8.4 17 -3.405 -0.134
20:51 1003 29.62 832 24.57 -3.7 25.4 65 -9.4 15.1 -3.552 -0.14
20:52 1003 29.62 832 24.57 -3.6 25.5 72 -7.9 17.8 -3.422 -0.135
20:53 1003 29.62 832 24.57 -2.8 26.9 67 -8.1 17.5 -2.673 -0.105
20:54 1003 29.62 832 24.57 -2.5 27.6 64 -8.3 17.1 -2.316 -0.091
20:55 1003 29.62 832 24.57 -2.5 27.5 63 -8.6 16.5 -2.322 -0.091
20:56 1003 29.62 832 24.57 -2.7 27.1 64 -8.6 16.5 -2.548 -0.1
20:57 1003 29.62 832 24.57 -2.8 26.9 65 -8.5 16.8 -2.622 -0.103
20:58 1003 29.62 832 24.57 -2.8 26.9 67 -8.2 17.2 -2.61 -0.103
20:59 1003 29.62 832 24.57 -2.8 27 66 -8.3 17.1 -2.554 -0.101
21:00 1003 29.62 832 24.57 -2.9 26.8 62 -9.1 15.6 -2.656 -0.105
21:01 1003 29.62 832 24.57 -3.7 25.4 62 -10 14 -3.381 -0.133
21:02 1003 29.62 832 24.57 -4.5 23.9 67 -9.7 14.5 -4.123 -0.162
21:03 1003 29.62 832 24.57 -4.6 23.7 74 -8.6 16.4 -4.231 -0.167
21:04 1003 29.62 832 24.57 -4.1 24.6 76 -7.8 18 -3.67 -0.144
21:05 1003 29.62 832 24.57 -3.1 26.4 70 -7.8 18 -2.553 -0.101
21:06 1003 29.62 832 24.57 -2.3 27.9 66 -7.9 17.8 -1.85 -0.073
21:07 1003 29.62 832 24.57 -1.9 28.6 62 -8.3 17 -1.629 -0.064
21:08 1003 29.62 832 24.57 -2.3 27.9 60 -9 15.9 -2.054 -0.081
21:09 1003 29.62 832 24.57 -3 26.7 66 -8.5 16.8 -2.547 -0.1
21:10 1003 29.62 832 24.57 -3.1 26.5 67 -8.3 17.1 -2.649 -0.104
21:11 1003 29.62 832 24.57 -3.2 26.2 64 -9.2 15.5 -2.831 -0.111
21:12 1003 29.62 832 24.57 -3.5 25.7 70 -8.2 17.3 -3.074 -0.121
21:13 1003 29.62 832 24.57 -3.1 26.3 70 -7.8 17.9 -2.819 -0.111
21:14 1003 29.62 832 24.57 -2.7 27.2 67 -7.9 17.7 -2.366 -0.093
21:15 1003 29.62 832 24.57 -2.6 27.4 60 -9.4 15.1 -2.354 -0.093
21:16 1003 29.62 832 24.57 -3.2 26.3 67 -8.4 16.8 -2.972 -0.117
21:17 1003 29.62 832 24.57 -3.2 26.3 68 -8.3 17.1 -2.938 -0.116
21:18 1003 29.62 832 24.57 -2.9 26.7 67 -8.2 17.3 -2.717 -0.107
21:19 1003 29.62 832 24.57 -2.6 27.2 67 -7.9 17.8 -2.411 -0.095
21:20 1003 29.62 832 24.57 -2.3 27.8 64 -8.2 17.2 -2.02 -0.08
21:21 1003 29.62 832 24.57 -2.2 28 65 -8 17.6 -1.963 -0.077
21:22 1003 29.62 832 24.57 -2.3 27.9 59 -9.3 15.2 -2.037 -0.08
21:23 1003 29.62 832 24.57 -2.7 27.1 66 -8.3 17.1 -2.49 -0.098
21:24 1003 29.62 832 24.57 -2.9 26.7 65 -8.7 16.4 -2.649 -0.104
21:25 1003 29.62 832 24.57 -3.1 26.3 65 -8.7 16.3 -2.836 -0.112
21:26 1003 29.62 832 24.57 -3.3 26 62 -9.5 14.8 -2.995 -0.118
21:27 1003 29.62 832 24.57 -3.9 25 67 -9.1 15.5 -3.505 -0.138
21:28 1003 29.62 832 24.57 -4.1 24.6 69 -9 15.9 -3.743 -0.147
21:29 1003 29.62 832 24.57 -4.2 24.4 69 -9.1 15.7 -3.771 -0.148
21:30 1003 29.62 832 24.57 -4.3 24.2 63 -10.3 13.5 -3.969 -0.156
21:31 1003 29.62 832 24.57 -5.2 22.7 67 -10.4 13.2 -4.831 -0.19
21:32 1003 29.62 832 24.57 -5.8 21.6 70 -10.4 13.2 -5.482 -0.216
21:33 1003 29.62 832 24.57 -6.1 21.1 73 -10.2 13.6 -5.868 -0.231
21:34 1003 29.62 832 24.57 -6.2 20.9 74 -10.2 13.7 -5.941 -0.234
21:35 1003 29.62 832 24.57 -6.3 20.6 70 -11 12.2 -6.123 -0.241
21:36 1003 29.62 832 24.57 -6.7 19.9 72 -10.9 12.4 -6.474 -0.255
21:37 1003 29.62 832 24.57 -7 19.5 76 -10.5 13.1 -6.65 -0.262
21:38 1003 29.62 832 24.57 -6.8 19.8 83 -9.2 15.4 -6.4 -0.252
21:39 1003 29.62 832 24.57 -6.2 20.9 80 -9.1 15.6 -5.788 -0.228
21:40 1003 29.62 832 24.57 -5.7 21.8 77 -9.1 15.7 -5.386 -0.212
21:41 1003 29.62 832 24.57 -5.2 22.6 77 -8.7 16.3 -5.091 -0.2
21:42 1003 29.62 832 24.57 -4.7 23.5 71 -9.2 15.4 -4.819 -0.19
21:43 1003 29.62 832 24.57 -4.6 23.7 72 -8.8 16.1 -4.631 -0.182
21:44 1003 29.62 832 24.57 -4.4 24.1 70 -9.1 15.6 -4.41 -0.174
21:45 1003 29.62 832 24.57 -4.5 24 65 -10.1 13.7 -4.455 -0.175
21:46 1003 29.62 832 24.57 -5 23 65 -10.7 12.8 -4.857 -0.191
21:47 1003 29.62 832 24.57 -5.4 22.2 74 -9.3 15.2 -5.038 -0.198
21:48 1003 29.62 832 24.57 -5.4 22.2 69 -10.2 13.6 -5.146 -0.203
21:49 1003 29.62 832 24.57 -5.5 22 70 -10.1 13.7 -5.287 -0.208
21:50 1003 29.62 832 24.57 -5.6 21.8 70 -10.2 13.6 -5.406 -0.213
21:51 1003 29.62 832 24.57 -5.6 21.9 75 -9.3 15.3 -5.275 -0.208
21:52 1003 29.62 833 24.6 -5.2 22.7 69 -10 13.9 -4.946 -0.195
21:53 1003 29.62 832 24.57 -5.3 22.4 72 -9.6 14.6 -5.105 -0.201
21:54 1003 29.62 833 24.6 -5.3 22.5 75 -9 15.8 -4.986 -0.196
21:55 1003 29.62 832 24.57 -4.9 23.1 73 -9.1 15.6 -4.64 -0.183
21:56 1003 29.62 832 24.57 -4.7 23.5 73 -8.9 16 -4.47 -0.176
21:57 1003 29.62 832 24.57 -4.5 23.9 69 -9.3 15.3 -4.271 -0.168
21:58 1003 29.62 832 24.57 -4.7 23.6 66 -10.1 13.8 -4.418 -0.174
21:59 1003 29.62 832 24.57 -5.1 22.8 69 -10 14 -4.821 -0.19
22:00 1003 29.62 832 24.57 -5.5 22.2 67 -10.6 12.9 -5.143 -0.202
22:01 1003 29.62 832 24.57 -5.9 21.3 71 -10.4 13.2 -5.512 -0.217
22:02 1003 29.62 832 24.57 -6 21.2 76 -9.6 14.8 -5.614 -0.221
22:03 1003 29.62 832 24.57 -5.7 21.8 77 -9.1 15.6 -5.307 -0.209
22:04 1003 29.62 832 24.57 -5.2 22.6 73 -9.3 15.3 -4.865 -0.192
22:05 1003 29.62 832 24.57 -5.2 22.7 64 -10.9 12.3 -5.024 -0.198
22:06 1003 29.62 832 24.57 -5.8 21.5 73 -9.9 14.1 -5.641 -0.222
22:07 1003 29.62 832 24.57 -5.9 21.3 72 -10.1 13.8 -5.714 -0.225
22:08 1003 29.62 832 24.57 -6 21.3 72 -10.2 13.6 -5.737 -0.226
22:09 1003 29.62 832 24.57 -5.9 21.3 73 -10.1 13.9 -5.691 -0.224
22:10 1003 29.62 832 24.57 -5.9 21.5 74 -9.9 14.3 -5.577 -0.22
22:11 1003 29.62 832 24.57 -5.8 21.5 72 -10 14 -5.594 -0.22
22:12 1003 29.62 832 24.57 -6 21.3 68 -11 12.2 -5.712 -0.225
22:13 1003 29.62 832 24.57 -6.4 20.5 73 -10.5 13.2 -6.12 -0.241
22:14 1003 29.62 832 24.57 -6.5 20.2 75 -10.2 13.6 -6.217 -0.245
22:15 1003 29.62 832 24.57 -6.4 20.5 79 -9.5 14.8 -6.074 -0.239
22:16 1003 29.62 832 24.57 -5.8 21.5 77 -9.2 15.4 -5.615 -0.221
22:17 1003 29.62 832 24.57 -5.2 22.6 74 -9.2 15.4 -5.06 -0.199
22:18 1003 29.62 832 24.57 -4.9 23.1 72 -9.1 15.5 -4.753 -0.187
22:19 1003 29.62 832 24.57 -5 23 66 -10.4 13.3 -4.753 -0.187
22:20 1003 29.62 832 24.57 -5.3 22.4 72 -9.6 14.7 -4.912 -0.193
22:21 1003 29.62 832 24.57 -5.1 22.8 74 -9.1 15.7 -4.696 -0.185
22:22 1003 29.62 832 24.57 -4.7 23.5 72 -9.1 15.7 -4.299 -0.169
22:23 1003 29.62 832 24.57 -4.5 23.9 68 -9.6 14.7 -4.214 -0.166
22:24 1003 29.62 832 24.57 -4.6 23.7 71 -9.1 15.6 -4.333 -0.171
22:25 1003 29.62 832 24.57 -4.6 23.7 71 -9.2 15.5 -4.338 -0.171
22:26 1003 29.62 832 24.57 -4.6 23.7 70 -9.3 15.3 -4.35 -0.171
22:27 1003 29.62 832 24.57 -4.7 23.5 71 -9.2 15.4 -4.423 -0.174
22:28 1003 29.62 832 24.57 -4.7 23.5 69 -9.6 14.8 -4.468 -0.176
22:29 1003 29.62 832 24.57 -4.9 23.1 69 -9.7 14.5 -4.718 -0.186
22:30 1003 29.62 832 24.57 -5.3 22.6 71 -9.8 14.4 -5.012 -0.197
22:31 1003 29.62 832 24.57 -5.5 22.1 72 -9.8 14.4 -5.188 -0.204
22:32 1003 29.62 832 24.57 -5.7 21.7 69 -10.6 13 -5.398 -0.213
22:33 1003 29.62 832 24.57 -6.2 20.9 74 -10.2 13.7 -5.794 -0.228
22:34 1003 29.62 832 24.57 -6.2 20.8 74 -10.1 13.9 -5.8 -0.228
22:35 1003 29.62 832 24.57 -6.2 20.9 74 -10 14 -5.811 -0.229
22:36 1003 29.62 832 24.57 -6.1 21.1 77 -9.4 15 -5.675 -0.223
22:37 1003 29.62 832 24.57 -5.7 21.7 74 -9.6 14.8 -5.386 -0.212
22:38 1003 29.62 832 24.57 -5.6 21.9 74 -9.5 14.9 -5.318 -0.209
22:39 1003 29.62 832 24.57 -5.6 22 72 -9.8 14.3 -5.205 -0.205
22:40 1003 29.62 832 24.57 -5.9 21.5 68 -10.8 12.5 -5.556 -0.219
22:41 1003 29.62 832 24.57 -6.5 20.3 67 -11.7 11 -6.061 -0.239
22:42 1003 29.62 832 24.57 -7.2 19.1 70 -11.8 10.8 -6.605 -0.26
22:43 1003 29.62 832 24.57 -7.5 18.6 77 -10.9 12.5 -6.916 -0.272
22:44 1003 29.62 832 24.57 -7.4 18.8 75 -11.1 12 -6.979 -0.275
22:45 1003 29.62 832 24.57 -7.5 18.5 77 -10.9 12.5 -7.12 -0.28
22:46 1003 29.62 832 24.57 -7.2 19.1 75 -10.9 12.5 -6.894 -0.271
22:47 1003 29.62 832 24.57 -6.8 19.7 75 -10.5 13.1 -6.695 -0.264
22:48 1003 29.62 832 24.57 -6.5 20.2 71 -10.9 12.3 -6.503 -0.256
22:49 1003 29.62 832 24.57 -7 19.4 70 -11.6 11.1 -6.967 -0.274
22:50 1003 29.62 832 24.57 -7.4 18.7 78 -10.6 12.9 -7.32 -0.288
22:51 1003 29.62 832 24.57 -6.9 19.6 78 -10.1 13.7 -6.741 -0.265
22:52 1003 29.62 832 24.57 -6.3 20.7 77 -9.6 14.7 -6.174 -0.243
22:53 1003 29.62 832 24.57 -5.6 21.9 74 -9.5 14.8 -5.482 -0.216
22:54 1003 29.62 832 24.57 -5.1 22.9 72 -9.4 15.1 -4.898 -0.193
22:55 1003 29.62 832 24.57 -4.7 23.5 70 -9.3 15.2 -4.609 -0.181
22:56 1003 29.62 832 24.57 -4.5 23.9 71 -9.1 15.7 -4.348 -0.171
22:57 1003 29.62 832 24.57 -4.2 24.5 69 -9.1 15.6 -4.059 -0.16
22:58 1003 29.62 832 24.57 -4.4 24 56 -12 10.5 -4.36 -0.172
22:59 1003 29.62 833 24.6 -6.1 21.1 55 -13.7 7.3 -5.924 -0.233
23:00 1003 29.62 832 24.57 -7.7 18.1 74 -11.7 11 -7.49 -0.295
23:01 1003 29.62 832 24.57 -7.6 18.3 80 -10.5 13.1 -7.32 -0.288
23:02 1003 29.62 833 24.6 -7.1 19.3 73 -11.1 12 -6.95 -0.274
23:03 1003 29.62 832 24.57 -7 19.4 75 -10.7 12.7 -6.99 -0.275
23:04 1003 29.62 832 24.57 -6.7 19.9 79 -9.8 14.4 -6.542 -0.258
23:05 1003 29.62 832 24.57 -6 21.2 77 -9.5 14.9 -5.793 -0.228
23:06 1003 29.62 832 24.57 -5.4 22.3 71 -9.9 14.2 -5.265 -0.207
23:07 1003 29.62 832 24.57 -5.3 22.5 71 -9.7 14.5 -5.254 -0.207
23:08 1003 29.62 832 24.57 -5.3 22.5 72 -9.5 14.9 -5.185 -0.204
23:09 1003 29.62 832 24.57 -5.1 22.8 68 -10.2 13.7 -5.032 -0.198
23:10 1003 29.62 832 24.57 -5.4 22.3 62 -11.6 11 -5.395 -0.212
23:11 1003 29.62 832 24.57 -6.4 20.6 68 -11.4 11.5 -6.25 -0.246
23:12 1003 29.62 832 24.57 -6.8 19.7 68 -11.8 10.7 -6.602 -0.26
23:13 1003 29.62 832 24.57 -7.2 19 72 -11.4 11.4 -6.925 -0.273
23:14 1003 29.62 832 24.57 -7.3 18.8 72 -11.6 11.2 -6.97 -0.274
23:15 1003 29.62 832 24.57 -7.5 18.4 72 -11.7 10.9 -7.14 -0.281
23:16 1003 29.62 832 24.57 -7.5 18.5 78 -10.7 12.7 -6.958 -0.274
23:17 1003 29.62 832 24.57 -7.1 19.3 77 -10.4 13.3 -6.669 -0.263
23:18 1003 29.62 832 24.57 -6.4 20.5 75 -10.1 13.9 -5.966 -0.235
23:19 1003 29.62 832 24.57 -5.7 21.7 73 -9.8 14.4 -5.438 -0.214
23:20 1003 29.62 832 24.57 -5.2 22.6 71 -9.7 14.5 -4.979 -0.196
23:21 1003 29.62 832 24.57 -4.9 23.2 68 -9.8 14.3 -4.701 -0.185
23:22 1003 29.62 832 24.57 -4.8 23.4 67 -9.9 14.2 -4.559 -0.179
23:23 1003 29.62 832 24.57 -4.7 23.5 67 -9.9 14.2 -4.502 -0.177
23:24 1003 29.62 832 24.57 -4.7 23.5 67 -10 14 -4.479 -0.176
23:25 1003 29.62 832 24.57 -4.8 23.4 64 -10.5 13.1 -4.547 -0.179
23:26 1003 29.62 832 24.57 -5.1 22.7 63 -11.1 11.9 -4.91 -0.193
23:27 1003 29.62 832 24.57 -5.6 21.8 69 -10.5 13 -5.324 -0.21
23:28 1003 29.62 832 24.57 -5.6 21.9 67 -10.7 12.7 -5.256 -0.207
23:29 1003 29.62 832 24.57 -5.6 22 68 -10.6 13 -5.261 -0.207
23:30 1003 29.62 832 24.57 -5.6 21.9 69 -10.5 13.1 -5.244 -0.206
23:31 1003 29.62 832 24.57 -5.7 21.8 70 -10.3 13.5 -5.318 -0.209
23:32 1003 29.62 832 24.57 -5.5 22 72 -9.9 14.3 -5.193 -0.204
23:33 1003 29.62 832 24.57 -5.2 22.6 68 -10.2 13.7 -4.938 -0.194
23:34 1003 29.62 832 24.57 -5.3 22.5 68 -10.4 13.3 -5.04 -0.198
23:35 1003 29.62 832 24.57 -5.3 22.4 72 -9.7 14.6 -5.023 -0.198
23:36 1003 29.62 832 24.57 -5 23 69 -9.8 14.3 -4.666 -0.184
23:37 1003 29.62 832 24.57 -4.8 23.4 68 -9.8 14.3 -4.439 -0.175
23:38 1003 29.62 832 24.57 -4.8 23.4 67 -10 14 -4.507 -0.177
23:39 1003 29.62 832 24.57 -4.9 23.2 68 -9.8 14.3 -4.507 -0.177
23:40 1003 29.62 832 24.57 -5 23.1 62 -11.1 12 -4.654 -0.183
23:41 1003 29.62 832 24.57 -5.8 21.6 67 -11 12.2 -5.505 -0.217
23:42 1003 29.62 832 24.57 -6.2 20.9 70 -10.7 12.7 -5.822 -0.229
23:43 1003 29.62 832 24.57 -6.2 20.9 69 -11 12.2 -5.85 -0.23
23:44 1003 29.62 832 24.57 -6.3 20.6 67 -11.5 11.3 -6.021 -0.237
23:45 1003 29.62 832 24.57 -6.8 19.8 69 -11.6 11.2 -6.508 -0.256
23:46 1003 29.62 832 24.57 -7.2 19.1 71 -11.6 11.2 -6.843 -0.269
23:47 1003 29.62 832 24.57 -7.3 18.9 72 -11.4 11.4 -6.984 -0.275
23:48 1003 29.62 832 24.57 -7.3 18.9 72 -11.5 11.4 -6.979 -0.275
23:49 1003 29.62 832 24.57 -7.2 19 74 -11.1 12 -6.95 -0.274
23:50 1003 29.62 832 24.57 -7.2 19 69 -12.1 10.3 -7.01 -0.276
23:51 1003 29.62 832 24.57 -7.6 18.4 75 -11.2 11.8 -7.3 -0.287
23:52 1003 29.62 832 24.57 -7.4 18.6 74 -11.3 11.6 -7.1 -0.28
23:53 1003 29.62 832 24.57 -7.3 18.8 71 -11.7 10.9 -7.06 -0.278
23:54 1003 29.62 832 24.57 -7.6 18.4 72 -11.7 10.9 -7.32 -0.288
23:55 1003 29.62 832 24.57 -7.7 18.2 72 -11.8 10.7 -7.43 -0.293
23:56 1003 29.62 832 24.57 -7.7 18.1 76 -11.2 11.8 -7.42 -0.292
23:57 1003 29.62 832 24.57 -7.2 19 77 -10.6 12.9 -6.973 -0.275
23:58 1003 29.62 832 24.57 -6.9 19.6 66 -12.2 10.1 -6.86 -0.27
23:59 1003 29.62 832 24.57 -7.4 18.8 73 -11.4 11.5 -7.25 -0.285
24:00 1003 29.62 832 24.57 -7.4 18.7 72 -11.6 11.2 -7.17 -0.282